Observation data for Boys Ranch on 10/16/2019      Previous  Date       Current Mesonet Observations  Soil Data  Daily Summary Page  Observations in Plain Language
KBY1 160500Z 33001KT 05/01 A3029 RMK A01 T00520009  RH  074%=      5-min Rain = 0
KBY1 160501Z 31002KT 05/01 A3029 RMK A01 T00510005  RH  072%=      5-min Rain = 0
KBY1 160502Z 32001KT 05/00 A3029 RMK A01 T00500003  RH  072%=      5-min Rain = 0
KBY1 160503Z 30001KT 05/00 A3029 RMK A01 T00490004  RH  073%=      5-min Rain = 0
KBY1 160504Z 30000KT 05/00 A3029 RMK A01 T00480004  RH  073%=      5-min Rain = 0
KBY1 160505Z 30001KT 05/00 A3029 RMK A01 T00470003  RH  073%=      5-min Rain = 0
KBY1 160506Z 31002KT 05/00 A3029 RMK A01 T00470001  RH  072%=      5-min Rain = 0
KBY1 160507Z 31001KT 05/00 A3029 RMK A01 T00480001  RH  071%=      5-min Rain = 0
KBY1 160508Z 15000KT 05/00 A3029 RMK A01 T00480000  RH  071%=      5-min Rain = 0
KBY1 160509Z 15000KT 05/00 A3029 RMK A01 T00470001  RH  072%=      5-min Rain = 0
KBY1 160510Z 15000KT 05/00 A3029 RMK A01 T00460001  RH  073%=      5-min Rain = 0
KBY1 160511Z 16001KT 05/00 A3029 RMK A01 T00460001  RH  073%=      5-min Rain = 0
KBY1 160512Z 20001KT 05/00 A3029 RMK A01 T00450002  RH  073%=      5-min Rain = 0
KBY1 160513Z 21001KT 05/00 A3029 RMK A01 T00450001  RH  073%=      5-min Rain = 0
KBY1 160514Z 23001KT 04/00 A303 RMK A01 T00440001  RH  074%=      5-min Rain = 0
KBY1 160515Z 24001KT 04/00 A303 RMK A01 T00420000  RH  074%=      5-min Rain = 0
KBY1 160516Z 24000KT 04/00 A303 RMK A01 T00420001  RH  075%=      5-min Rain = 0
KBY1 160517Z 00000KT 04/00 A303 RMK A01 T00420002  RH  075%=      5-min Rain = 0
KBY1 160518Z 00000KT 04/00 A303 RMK A01 T00430003  RH  076%=      5-min Rain = 0
KBY1 160519Z 00000KT 04/01 A303 RMK A01 T00430005  RH  076%=      5-min Rain = 0
KBY1 160520Z 00000KT 04/01 A303 RMK A01 T00430006  RH  077%=      5-min Rain = 0
KBY1 160521Z 00000KT 04/01 A303 RMK A01 T00420007  RH  078%=      5-min Rain = 0
KBY1 160522Z 00000KT 04/01 A303 RMK A01 T00420007  RH  078%=      5-min Rain = 0
KBY1 160523Z 00000KT 04/01 A303 RMK A01 T00410007  RH  078%=      5-min Rain = 0
KBY1 160524Z 00000KT 04/01 A303 RMK A01 T00410006  RH  078%=      5-min Rain = 0
KBY1 160525Z 00000KT 04/01 A303 RMK A01 T00400006  RH  079%=      5-min Rain = 0
KBY1 160526Z 00000KT 04/01 A3029 RMK A01 T00390005  RH  079%=      5-min Rain = 0
KBY1 160527Z 00000KT 04/01 A3029 RMK A01 T00380007  RH  080%=      5-min Rain = 0
KBY1 160528Z 35000KT 04/01 A3029 RMK A01 T00380006  RH  079%=      5-min Rain = 0
KBY1 160529Z 32001KT 04/01 A3029 RMK A01 T00400006  RH  078%=      5-min Rain = 0
KBY1 160530Z 32001KT 04/01 A3029 RMK A01 T00400005  RH  078%=      5-min Rain = 0
KBY1 160531Z 32001KT 04/00 A3029 RMK A01 T00400004  RH  077%=      5-min Rain = 0
KBY1 160532Z 31001KT 04/01 A3029 RMK A01 T00410005  RH  078%=      5-min Rain = 0
KBY1 160533Z 32002KT 04/01 A303 RMK A01 T00400006  RH  079%=      5-min Rain = 0
KBY1 160534Z 31001KT 04/01 A303 RMK A01 T00390005  RH  079%=      5-min Rain = 0
KBY1 160535Z 32002KT 04/01 A303 RMK A01 T00380005  RH  079%=      5-min Rain = 0
KBY1 160536Z 33002KT 04/01 A303 RMK A01 T00380005  RH  079%=      5-min Rain = 0
KBY1 160537Z 33003KT 04/01 A303 RMK A01 T00380005  RH  079%=      5-min Rain = 0
KBY1 160538Z 33002KT 04/01 A303 RMK A01 T00390005  RH  079%=      5-min Rain = 0
KBY1 160539Z 34002KT 04/00 A303 RMK A01 T00380004  RH  078%=      5-min Rain = 0
KBY1 160540Z 33002KT 04/00 A303 RMK A01 T00390004  RH  078%=      5-min Rain = 0
KBY1 160541Z 32001KT 04/00 A303 RMK A01 T00390004  RH  078%=      5-min Rain = 0
KBY1 160542Z 31002KT 04/00 A303 RMK A01 T00380004  RH  078%=      5-min Rain = 0
KBY1 160543Z 01001KT 04/00 A303 RMK A01 T00370004  RH  079%=      5-min Rain = 0
KBY1 160544Z 33002KT 04/00 A303 RMK A01 T00350004  RH  080%=      5-min Rain = 0
KBY1 160545Z 03002KT 04/00 A303 RMK A01 T00350004  RH  080%=      5-min Rain = 0
KBY1 160546Z 01000KT 04/00 A303 RMK A01 T00350004  RH  080%=      5-min Rain = 0
KBY1 160547Z 06001KT 04/01 A303 RMK A01 T00350005  RH  081%=      5-min Rain = 0
KBY1 160548Z 05001KT 03/01 A303 RMK A01 T00340005  RH  081%=      5-min Rain = 0
KBY1 160549Z 35001KT 03/00 A303 RMK A01 T00330004  RH  082%=      5-min Rain = 0
KBY1 160550Z 35000KT 03/01 A303 RMK A01 T00330006  RH  082%=      5-min Rain = 0
KBY1 160551Z 00000KT 03/01 A303 RMK A01 T00330006  RH  083%=      5-min Rain = 0
KBY1 160552Z 34001KT 03/01 A303 RMK A01 T00330007  RH  083%=      5-min Rain = 0
KBY1 160553Z 33001KT 03/01 A303 RMK A01 T00340007  RH  083%=      5-min Rain = 0
KBY1 160554Z 34000KT 03/01 A303 RMK A01 T00330006  RH  083%=      5-min Rain = 0
KBY1 160555Z 32001KT 03/01 A303 RMK A01 T00320006  RH  083%=      5-min Rain = 0
KBY1 160556Z 32001KT 03/01 A303 RMK A01 T00320006  RH  083%=      5-min Rain = 0
KBY1 160557Z 34001KT 03/01 A303 RMK A01 T00320006  RH  083%=      5-min Rain = 0
KBY1 160558Z 33001KT 03/01 A303 RMK A01 T00320006  RH  083%=      5-min Rain = 0
KBY1 160559Z 33001KT 03/01 A303 RMK A01 T00320006  RH  083%=      5-min Rain = 0
KBY1 160600Z 32001KT 03/01 A303 RMK A01 T00320006  RH  083%=      5-min Rain = 0
KBY1 160601Z 31000KT 03/01 A303 RMK A01 T00320006  RH  083%=      5-min Rain = 0
KBY1 160602Z 00000KT 03/01 A303 RMK A01 T00330005  RH  082%=      5-min Rain = 0
KBY1 160603Z 17000KT 03/00 A303 RMK A01 T00330004  RH  081%=      5-min Rain = 0
KBY1 160604Z 17000KT 03/00 A303 RMK A01 T00340004  RH  081%=      5-min Rain = 0
KBY1 160605Z 00000KT 03/00 A303 RMK A01 T00330003  RH  081%=      5-min Rain = 0
KBY1 160606Z 00000KT 03/00 A303 RMK A01 T00310001  RH  081%=      5-min Rain = 0
KBY1 160607Z 20001KT 03/00 A303 RMK A01 T00300001  RH  081%=      5-min Rain = 0
KBY1 160608Z 22001KT 03/00 A303 RMK A01 T00290001  RH  082%=      5-min Rain = 0
KBY1 160609Z 22001KT 03/00 A303 RMK A01 T00290002  RH  082%=      5-min Rain = 0
KBY1 160610Z 00000KT 03/00 A3031 RMK A01 T00300004  RH  083%=      5-min Rain = 0
KBY1 160611Z 19001KT 03/00 A3031 RMK A01 T00300003  RH  083%=      5-min Rain = 0
KBY1 160612Z 21001KT 03/00 A3031 RMK A01 T00290003  RH  083%=      5-min Rain = 0
KBY1 160613Z 22002KT 03/00 A3031 RMK A01 T00280001  RH  083%=      5-min Rain = 0
KBY1 160614Z 22002KT 03/00 A3031 RMK A01 T00260002  RH  084%=      5-min Rain = 0
KBY1 160615Z 23002KT 03/00 A3031 RMK A01 T00270004  RH  085%=      5-min Rain = 0
KBY1 160616Z 22002KT 03/01 A3031 RMK A01 T00270006  RH  086%=      5-min Rain = 0
KBY1 160617Z 21001KT 03/01 A3031 RMK A01 T00270007  RH  087%=      5-min Rain = 0
KBY1 160618Z 21001KT 03/01 A3031 RMK A01 T00270008  RH  087%=      5-min Rain = 0
KBY1 160619Z 22001KT 03/01 A3031 RMK A01 T00260008  RH  087%=      5-min Rain = 0
KBY1 160620Z 22001KT 03/01 A303 RMK A01 T00260008  RH  088%=      5-min Rain = 0
KBY1 160621Z 22001KT 03/01 A303 RMK A01 T00270007  RH  087%=      5-min Rain = 0
KBY1 160622Z 23000KT 03/01 A303 RMK A01 T00270008  RH  087%=      5-min Rain = 0
KBY1 160623Z 24000KT 03/01 A303 RMK A01 T00270007  RH  087%=      5-min Rain = 0
KBY1 160624Z 00000KT 03/01 A3031 RMK A01 T00280007  RH  086%=      5-min Rain = 0
KBY1 160625Z 00000KT 03/01 A3031 RMK A01 T00280007  RH  086%=      5-min Rain = 0
KBY1 160626Z 00000KT 03/01 A3031 RMK A01 T00290008  RH  086%=      5-min Rain = 0
KBY1 160627Z 00000KT 03/01 A3031 RMK A01 T00290008  RH  086%=      5-min Rain = 0
KBY1 160628Z 00000KT 03/01 A3031 RMK A01 T00290008  RH  086%=      5-min Rain = 0
KBY1 160629Z 00000KT 03/01 A3031 RMK A01 T00290008  RH  086%=      5-min Rain = 0
KBY1 160630Z 00000KT 03/01 A3031 RMK A01 T00290007  RH  086%=      5-min Rain = 0
KBY1 160631Z 00000KT 03/01 A3031 RMK A01 T00280006  RH  085%=      5-min Rain = 0
KBY1 160632Z 00000KT 03/01 A3031 RMK A01 T00270005  RH  085%=      5-min Rain = 0
KBY1 160633Z 00000KT 03/01 A3031 RMK A01 T00270005  RH  086%=      5-min Rain = 0
KBY1 160634Z 00000KT 03/01 A3031 RMK A01 T00260006  RH  087%=      5-min Rain = 0
KBY1 160635Z 00000KT 03/01 A3031 RMK A01 T00270007  RH  087%=      5-min Rain = 0
KBY1 160636Z 00000KT 03/01 A3031 RMK A01 T00280008  RH  087%=      5-min Rain = 0
KBY1 160637Z 00000KT 03/01 A3031 RMK A01 T00280008  RH  086%=      5-min Rain = 0
KBY1 160638Z 00000KT 03/01 A3031 RMK A01 T00280008  RH  086%=      5-min Rain = 0
KBY1 160639Z 00000KT 03/01 A3031 RMK A01 T00290008  RH  086%=      5-min Rain = 0
KBY1 160640Z 28000KT 03/01 A3031 RMK A01 T00300008  RH  086%=      5-min Rain = 0
KBY1 160641Z 28001KT 03/01 A3031 RMK A01 T00290007  RH  085%=      5-min Rain = 0
KBY1 160642Z 30001KT 03/00 A3031 RMK A01 T00270004  RH  085%=      5-min Rain = 0
KBY1 160643Z 32000KT 03/00 A3031 RMK A01 T00260004  RH  085%=      5-min Rain = 0
KBY1 160644Z 29000KT 03/00 A3031 RMK A01 T00260004  RH  085%=      5-min Rain = 0
KBY1 160645Z 29001KT 03/00 A3031 RMK A01 T00260004  RH  085%=      5-min Rain = 0
KBY1 160646Z 29000KT 03/01 A3031 RMK A01 T00270005  RH  085%=      5-min Rain = 0
KBY1 160647Z 29001KT 03/00 A3032 RMK A01 T00270004  RH  085%=      5-min Rain = 0
KBY1 160648Z 30001KT 03/00 A3032 RMK A01 T00280004  RH  085%=      5-min Rain = 0
KBY1 160649Z 31001KT 03/01 A3032 RMK A01 T00280005  RH  084%=      5-min Rain = 0
KBY1 160650Z 29002KT 03/01 A3032 RMK A01 T00300006  RH  084%=      5-min Rain = 0
KBY1 160651Z 30002KT 03/01 A3032 RMK A01 T00310007  RH  084%=      5-min Rain = 0
KBY1 160652Z 30003KT 03/01 A3032 RMK A01 T00320007  RH  083%=      5-min Rain = 0
KBY1 160653Z 29004KT 03/01 A3032 RMK A01 T00340007  RH  083%=      5-min Rain = 0
KBY1 160654Z 29004KT 03/01 A3032 RMK A01 T00340007  RH  083%=      5-min Rain = 0
KBY1 160655Z 29004KT 04/01 A3032 RMK A01 T00350006  RH  081%=      5-min Rain = 0
KBY1 160656Z 30004KT 04/01 A3032 RMK A01 T00360005  RH  080%=      5-min Rain = 0
KBY1 160657Z 30003KT 04/00 A3032 RMK A01 T00370004  RH  079%=      5-min Rain = 0
KBY1 160658Z 31003KT 04/00 A3032 RMK A01 T00360002  RH  079%=      5-min Rain = 0
KBY1 160659Z 30004KT 04/00 A3032 RMK A01 T00350001  RH  079%=      5-min Rain = 0
KBY1 160700Z 31004KT 04/00 A3033 RMK A01 T00350001  RH  078%=      5-min Rain = 0
KBY1 160701Z 31005KT 04/00 A3033 RMK A01 T00360002  RH  078%=      5-min Rain = 0
KBY1 160702Z 32006KT 04/00 A3033 RMK A01 T00370001  RH  078%=      5-min Rain = 0
KBY1 160703Z 32006KT 04/00 A3033 RMK A01 T00380000  RH  077%=      5-min Rain = 0
KBY1 160704Z 31006KT 04/00 A3033 RMK A01 T003800-0  RH  076%=      5-min Rain = 0
KBY1 160705Z 31006KT 04/00 A3033 RMK A01 T003800-0  RH  076%=      5-min Rain = 0
KBY1 160706Z 31007KT 04/M00 A3033 RMK A01 T00381001  RH  076%=      5-min Rain = 0
KBY1 160707Z 31006KT 04/M00 A3033 RMK A01 T00381001  RH  076%=      5-min Rain = 0
KBY1 160708Z 30006KT 04/M00 A3033 RMK A01 T00381001  RH  075%=      5-min Rain = 0
KBY1 160709Z 30005KT 04/M00 A3033 RMK A01 T00391001  RH  075%=      5-min Rain = 0
KBY1 160710Z 30006KT 04/M00 A3033 RMK A01 T00381001  RH  075%=      5-min Rain = 0
KBY1 160711Z 31006KT 04/M00 A3033 RMK A01 T00391001  RH  075%=      5-min Rain = 0
KBY1 160712Z 30006KT 04/M00 A3033 RMK A01 T00401002  RH  074%=      5-min Rain = 0
KBY1 160713Z 30006KT 04/M00 A3033 RMK A01 T00401001  RH  074%=      5-min Rain = 0
KBY1 160714Z 29006KT 04/M00 A3033 RMK A01 T00401001  RH  074%=      5-min Rain = 0
KBY1 160715Z 29005KT 04/M00 A3033 RMK A01 T00411001  RH  074%=      5-min Rain = 0
KBY1 160716Z 29005KT 04/M00 A3033 RMK A01 T00411001  RH  074%=      5-min Rain = 0
KBY1 160717Z 29003KT 04/M00 A3033 RMK A01 T00421001  RH  074%=      5-min Rain = 0
KBY1 160718Z 28003KT 04/M00 A3033 RMK A01 T00421001  RH  074%=      5-min Rain = 0
KBY1 160719Z 27002KT 04/00 A3033 RMK A01 T00420000  RH  074%=      5-min Rain = 0
KBY1 160720Z 27002KT 04/00 A3033 RMK A01 T00410001  RH  075%=      5-min Rain = 0
KBY1 160721Z 27002KT 04/00 A3033 RMK A01 T00380000  RH  076%=      5-min Rain = 0
KBY1 160722Z 27003KT 04/00 A3033 RMK A01 T003700-0  RH  077%=      5-min Rain = 0
KBY1 160723Z 27004KT 04/00 A3033 RMK A01 T00370000  RH  077%=      5-min Rain = 0
KBY1 160724Z 27004KT 04/00 A3033 RMK A01 T003700-0  RH  077%=      5-min Rain = 0
KBY1 160725Z 27005KT 04/00 A3033 RMK A01 T00390000  RH  076%=      5-min Rain = 0
KBY1 160726Z 27003KT 04/00 A3033 RMK A01 T00400000  RH  075%=      5-min Rain = 0
KBY1 160727Z 27002KT 04/00 A3033 RMK A01 T004000-0  RH  075%=      5-min Rain = 0
KBY1 160728Z 28002KT 04/M00 A3033 RMK A01 T00401001  RH  075%=      5-min Rain = 0
KBY1 160729Z 28002KT 04/M00 A3033 RMK A01 T00401001  RH  075%=      5-min Rain = 0
KBY1 160730Z 29002KT 04/M00 A3033 RMK A01 T00401001  RH  075%=      5-min Rain = 0
KBY1 160731Z 32001KT 04/M00 A3033 RMK A01 T00401001  RH  075%=      5-min Rain = 0
KBY1 160732Z 32001KT 04/00 A3033 RMK A01 T004000-0  RH  075%=      5-min Rain = 0
KBY1 160733Z 31000KT 04/00 A3033 RMK A01 T003900-0  RH  075%=      5-min Rain = 0
KBY1 160734Z 00000KT 04/00 A3033 RMK A01 T003800-0  RH  076%=      5-min Rain = 0
KBY1 160735Z 00000KT 04/00 A3033 RMK A01 T00370001  RH  077%=      5-min Rain = 0
KBY1 160736Z 09000KT 04/00 A3033 RMK A01 T00360001  RH  078%=      5-min Rain = 0
KBY1 160737Z 17000KT 04/00 A3033 RMK A01 T00350001  RH  078%=      5-min Rain = 0
KBY1 160738Z 20000KT 03/00 A3033 RMK A01 T00340001  RH  079%=      5-min Rain = 0
KBY1 160739Z 14000KT 03/00 A3033 RMK A01 T00330001  RH  079%=      5-min Rain = 0
KBY1 160740Z 14000KT 03/00 A3033 RMK A01 T00330000  RH  079%=      5-min Rain = 0
KBY1 160741Z 18000KT 03/00 A3033 RMK A01 T003300-0  RH  079%=      5-min Rain = 0
KBY1 160742Z 00000KT 03/M00 A3033 RMK A01 T00331001  RH  078%=      5-min Rain = 0
KBY1 160743Z 00000KT 04/M00 A3033 RMK A01 T00351002  RH  077%=      5-min Rain = 0
KBY1 160744Z 24000KT 04/M00 A3033 RMK A01 T00361002  RH  076%=      5-min Rain = 0
KBY1 160745Z 00000KT 04/M00 A3033 RMK A01 T00371002  RH  075%=      5-min Rain = 0
KBY1 160746Z 00000KT 04/M00 A3033 RMK A01 T00371001  RH  076%=      5-min Rain = 0
KBY1 160747Z 00000KT 04/M00 A3033 RMK A01 T00381001  RH  076%=      5-min Rain = 0
KBY1 160748Z 35000KT 04/M00 A3033 RMK A01 T00371001  RH  076%=      5-min Rain = 0
KBY1 160749Z 30001KT 04/00 A3033 RMK A01 T00370000  RH  077%=      5-min Rain = 0
KBY1 160750Z 29002KT 04/M00 A3033 RMK A01 T00371001  RH  077%=      5-min Rain = 0
KBY1 160751Z 29002KT 04/M00 A3033 RMK A01 T00371002  RH  076%=      5-min Rain = 0
KBY1 160752Z 30002KT 04/M00 A3033 RMK A01 T00371001  RH  076%=      5-min Rain = 0
KBY1 160753Z 29004KT 04/M00 A3033 RMK A01 T00371002  RH  076%=      5-min Rain = 0
KBY1 160754Z 29004KT 04/M00 A3033 RMK A01 T00371003  RH  075%=      5-min Rain = 0
KBY1 160755Z 29003KT 04/M00 A3033 RMK A01 T00391003  RH  074%=      5-min Rain = 0
KBY1 160756Z 28003KT 04/M00 A3033 RMK A01 T00401003  RH  073%=      5-min Rain = 0
KBY1 160757Z 28002KT 04/M00 A3033 RMK A01 T00411003  RH  073%=      5-min Rain = 0
KBY1 160758Z 29002KT 04/M00 A3033 RMK A01 T00411003  RH  073%=      5-min Rain = 0
KBY1 160759Z 29003KT 04/M00 A3033 RMK A01 T00391003  RH  074%=      5-min Rain = 0
KBY1 160800Z 30003KT 04/M00 A3033 RMK A01 T00381002  RH  075%=      5-min Rain = 0
KBY1 160801Z 30003KT 04/M00 A3033 RMK A01 T00381002  RH  075%=      5-min Rain = 0
KBY1 160802Z 30005KT 04/M00 A3033 RMK A01 T00391003  RH  074%=      5-min Rain = 0
KBY1 160803Z 30005KT 04/M00 A3033 RMK A01 T00411003  RH  073%=      5-min Rain = 0
KBY1 160804Z 29004KT 04/M00 A3033 RMK A01 T00431003  RH  072%=      5-min Rain = 0
KBY1 160805Z 30004KT 04/M00 A3033 RMK A01 T00441003  RH  072%=      5-min Rain = 0
KBY1 160806Z 30004KT 05/M00 A3033 RMK A01 T00451003  RH  071%=      5-min Rain = 0
KBY1 160807Z 30004KT 05/M00 A3033 RMK A01 T00461003  RH  071%=      5-min Rain = 0
KBY1 160808Z 30004KT 05/M00 A3033 RMK A01 T00461003  RH  071%=      5-min Rain = 0
KBY1 160809Z 29005KT 05/M00 A3033 RMK A01 T00451003  RH  071%=      5-min Rain = 0
KBY1 160810Z 29004KT 05/M00 A3033 RMK A01 T00451002  RH  071%=      5-min Rain = 0
KBY1 160811Z 29004KT 04/M00 A3033 RMK A01 T00441003  RH  072%=      5-min Rain = 0
KBY1 160812Z 29004KT 04/M00 A3033 RMK A01 T00441002  RH  072%=      5-min Rain = 0
KBY1 160813Z 29004KT 04/M00 A3033 RMK A01 T00441002  RH  072%=      5-min Rain = 0
KBY1 160814Z 28004KT 04/M00 A3033 RMK A01 T00441002  RH  072%=      5-min Rain = 0
KBY1 160815Z 28003KT 04/M00 A3033 RMK A01 T00441001  RH  072%=      5-min Rain = 0
KBY1 160816Z 29003KT 04/M00 A3033 RMK A01 T00441001  RH  072%=      5-min Rain = 0
KBY1 160817Z 28004KT 04/M00 A3033 RMK A01 T00441001  RH  073%=      5-min Rain = 0
KBY1 160818Z 29004KT 04/M00 A3033 RMK A01 T00441001  RH  073%=      5-min Rain = 0
KBY1 160819Z 30005KT 04/M00 A3033 RMK A01 T00441001  RH  073%=      5-min Rain = 0
KBY1 160820Z 30006KT 04/M00 A3033 RMK A01 T00431001  RH  073%=      5-min Rain = 0
KBY1 160821Z 30006KT 04/M00 A3033 RMK A01 T00421001  RH  073%=      5-min Rain = 0
KBY1 160822Z 30006KT 04/M00 A3033 RMK A01 T00421001  RH  074%=      5-min Rain = 0
KBY1 160823Z 30005KT 04/M00 A3033 RMK A01 T00421001  RH  074%=      5-min Rain = 0
KBY1 160824Z 29005KT 04/M00 A3033 RMK A01 T00421001  RH  073%=      5-min Rain = 0
KBY1 160825Z 29004KT 04/M00 A3033 RMK A01 T00431001  RH  073%=      5-min Rain = 0
KBY1 160826Z 29004KT 04/M00 A3033 RMK A01 T00431001  RH  073%=      5-min Rain = 0
KBY1 160827Z 29005KT 04/00 A3033 RMK A01 T004300-0  RH  074%=      5-min Rain = 0
KBY1 160828Z 29005KT 04/00 A3033 RMK A01 T004200-0  RH  074%=      5-min Rain = 0
KBY1 160829Z 30005KT 04/00 A3033 RMK A01 T004300-0  RH  074%=      5-min Rain = 0
KBY1 160830Z 30005KT 04/00 A3033 RMK A01 T004200-0  RH  074%=      5-min Rain = 0
KBY1 160831Z 29004KT 04/00 A3033 RMK A01 T00430000  RH  074%=      5-min Rain = 0
KBY1 160832Z 29004KT 04/00 A3033 RMK A01 T00430000  RH  074%=      5-min Rain = 0
KBY1 160833Z 27004KT 04/00 A3033 RMK A01 T004200-0  RH  074%=      5-min Rain = 0
KBY1 160834Z 27002KT 04/00 A3033 RMK A01 T00420000  RH  074%=      5-min Rain = 0
KBY1 160835Z 26002KT 04/M00 A3033 RMK A01 T00411001  RH  074%=      5-min Rain = 0
KBY1 160836Z 27002KT 04/M00 A3033 RMK A01 T00391002  RH  075%=      5-min Rain = 0
KBY1 160837Z 29003KT 04/M00 A3033 RMK A01 T00351003  RH  076%=      5-min Rain = 0
KBY1 160838Z 29003KT 03/M00 A3033 RMK A01 T00341002  RH  077%=      5-min Rain = 0
KBY1 160839Z 29003KT 04/M00 A3033 RMK A01 T00361001  RH  077%=      5-min Rain = 0
KBY1 160840Z 28002KT 04/M00 A3033 RMK A01 T00361001  RH  077%=      5-min Rain = 0
KBY1 160841Z 29002KT 04/M00 A3033 RMK A01 T00371001  RH  076%=      5-min Rain = 0
KBY1 160842Z 29002KT 04/M00 A3033 RMK A01 T00371002  RH  076%=      5-min Rain = 0
KBY1 160843Z 29002KT 04/M00 A3033 RMK A01 T00371001  RH  076%=      5-min Rain = 0
KBY1 160844Z 30002KT 04/M00 A3033 RMK A01 T00371002  RH  076%=      5-min Rain = 0
KBY1 160845Z 29002KT 04/M00 A3033 RMK A01 T00371002  RH  076%=      5-min Rain = 0
KBY1 160846Z 30002KT 04/M00 A3033 RMK A01 T00361003  RH  076%=      5-min Rain = 0
KBY1 160847Z 29002KT 04/M00 A3033 RMK A01 T00361003  RH  076%=      5-min Rain = 0
KBY1 160848Z 30003KT 04/M00 A3033 RMK A01 T00361002  RH  076%=      5-min Rain = 0
KBY1 160849Z 30002KT 04/M00 A3033 RMK A01 T00361002  RH  076%=      5-min Rain = 0
KBY1 160850Z 29002KT 04/M00 A3033 RMK A01 T00371001  RH  076%=      5-min Rain = 0
KBY1 160851Z 28003KT 04/M00 A3033 RMK A01 T00381001  RH  076%=      5-min Rain = 0
KBY1 160852Z 28003KT 04/M00 A3032 RMK A01 T00401001  RH  075%=      5-min Rain = 0
KBY1 160853Z 27001KT 04/M00 A3032 RMK A01 T00411001  RH  074%=      5-min Rain = 0
KBY1 160854Z 29002KT 04/M00 A3032 RMK A01 T00411001  RH  074%=      5-min Rain = 0
KBY1 160855Z 28002KT 04/M00 A3033 RMK A01 T00401001  RH  075%=      5-min Rain = 0
KBY1 160856Z 27003KT 04/M00 A3033 RMK A01 T00391001  RH  075%=      5-min Rain = 0
KBY1 160857Z 27002KT 04/M00 A3033 RMK A01 T00391001  RH  075%=      5-min Rain = 0
KBY1 160858Z 30002KT 04/00 A3033 RMK A01 T004000-0  RH  075%=      5-min Rain = 0
KBY1 160859Z 28002KT 04/M00 A3033 RMK A01 T00391001  RH  075%=      5-min Rain = 0
KBY1 160900Z 30001KT 04/00 A3032 RMK A01 T003900-0  RH  075%=      5-min Rain = 0
KBY1 160901Z 29002KT 04/00 A3032 RMK A01 T003900-0  RH  075%=      5-min Rain = 0
KBY1 160902Z 30003KT 04/00 A3032 RMK A01 T00390000  RH  076%=      5-min Rain = 0
KBY1 160903Z 29003KT 04/00 A3032 RMK A01 T00400000  RH  076%=      5-min Rain = 0
KBY1 160904Z 30002KT 04/00 A3032 RMK A01 T00400001  RH  076%=      5-min Rain = 0
KBY1 160905Z 28003KT 04/00 A3032 RMK A01 T00390001  RH  076%=      5-min Rain = 0
KBY1 160906Z 29002KT 04/00 A3032 RMK A01 T00390001  RH  076%=      5-min Rain = 0
KBY1 160907Z 26002KT 04/00 A3032 RMK A01 T00390001  RH  076%=      5-min Rain = 0
KBY1 160908Z 26002KT 04/00 A3032 RMK A01 T00390001  RH  076%=      5-min Rain = 0
KBY1 160909Z 27002KT 04/00 A3032 RMK A01 T00380000  RH  076%=      5-min Rain = 0
KBY1 160910Z 28003KT 04/00 A3032 RMK A01 T00380001  RH  077%=      5-min Rain = 0
KBY1 160911Z 29002KT 04/00 A3032 RMK A01 T00370000  RH  077%=      5-min Rain = 0
KBY1 160912Z 30002KT 04/00 A3032 RMK A01 T00360001  RH  078%=      5-min Rain = 0
KBY1 160913Z 29002KT 04/00 A3032 RMK A01 T00360001  RH  078%=      5-min Rain = 0
KBY1 160914Z 28002KT 04/00 A3032 RMK A01 T00370001  RH  078%=      5-min Rain = 0
KBY1 160915Z 28001KT 04/00 A3032 RMK A01 T00370001  RH  077%=      5-min Rain = 0
KBY1 160916Z 26001KT 04/00 A3032 RMK A01 T00360001  RH  077%=      5-min Rain = 0
KBY1 160917Z 23001KT 04/00 A3032 RMK A01 T00350000  RH  078%=      5-min Rain = 0
KBY1 160918Z 24001KT 03/M00 A3032 RMK A01 T00341001  RH  078%=      5-min Rain = 0
KBY1 160919Z 24001KT 03/M00 A3032 RMK A01 T00321002  RH  078%=      5-min Rain = 0
KBY1 160920Z 25000KT 03/M00 A3032 RMK A01 T00301003  RH  079%=      5-min Rain = 0
KBY1 160921Z 28000KT 03/M00 A3032 RMK A01 T00271004  RH  080%=      5-min Rain = 0
KBY1 160922Z 30000KT 03/M00 A3032 RMK A01 T00261003  RH  081%=      5-min Rain = 0
KBY1 160923Z 32001KT 03/M00 A3032 RMK A01 T00251003  RH  082%=      5-min Rain = 0
KBY1 160924Z 31002KT 03/M00 A3032 RMK A01 T00251002  RH  082%=      5-min Rain = 0
KBY1 160925Z 30002KT 03/M00 A3032 RMK A01 T00251001  RH  083%=      5-min Rain = 0
KBY1 160926Z 30002KT 03/00 A3032 RMK A01 T00260001  RH  083%=      5-min Rain = 0
KBY1 160927Z 30001KT 03/00 A3032 RMK A01 T00270001  RH  083%=      5-min Rain = 0
KBY1 160928Z 28001KT 03/00 A3032 RMK A01 T00270001  RH  083%=      5-min Rain = 0
KBY1 160929Z 26002KT 03/00 A3032 RMK A01 T00280001  RH  083%=      5-min Rain = 0
KBY1 160930Z 29001KT 03/00 A3032 RMK A01 T00280001  RH  082%=      5-min Rain = 0
KBY1 160931Z 28002KT 03/00 A3032 RMK A01 T00290001  RH  082%=      5-min Rain = 0
KBY1 160932Z 28002KT 03/00 A3032 RMK A01 T00300000  RH  081%=      5-min Rain = 0
KBY1 160933Z 27001KT 03/00 A3032 RMK A01 T003000-0  RH  081%=      5-min Rain = 0
KBY1 160934Z 26001KT 03/M00 A3032 RMK A01 T00291001  RH  081%=      5-min Rain = 0
KBY1 160935Z 27001KT 03/00 A3032 RMK A01 T002800-0  RH  081%=      5-min Rain = 0
KBY1 160936Z 26001KT 03/00 A3032 RMK A01 T002800-0  RH  082%=      5-min Rain = 0
KBY1 160937Z 26000KT 03/00 A3032 RMK A01 T002700-0  RH  082%=      5-min Rain = 0
KBY1 160938Z 24000KT 03/00 A3032 RMK A01 T002700-0  RH  082%=      5-min Rain = 0
KBY1 160939Z 23001KT 03/00 A3032 RMK A01 T002700-0  RH  082%=      5-min Rain = 0
KBY1 160940Z 22001KT 03/M00 A3032 RMK A01 T00271001  RH  082%=      5-min Rain = 0
KBY1 160941Z 23000KT 03/M00 A3032 RMK A01 T00261001  RH  082%=      5-min Rain = 0
KBY1 160942Z 25001KT 03/M00 A3032 RMK A01 T00251002  RH  082%=      5-min Rain = 0
KBY1 160943Z 25001KT 02/M00 A3032 RMK A01 T00241002  RH  083%=      5-min Rain = 0
KBY1 160944Z 22000KT 02/M00 A3032 RMK A01 T00241002  RH  083%=      5-min Rain = 0
KBY1 160945Z 23000KT 02/M00 A3032 RMK A01 T00241002  RH  083%=      5-min Rain = 0
KBY1 160946Z 23001KT 02/M00 A3032 RMK A01 T00231003  RH  083%=      5-min Rain = 0
KBY1 160947Z 24000KT 02/M00 A3032 RMK A01 T00221003  RH  083%=      5-min Rain = 0
KBY1 160948Z 24000KT 02/M00 A3032 RMK A01 T00221003  RH  084%=      5-min Rain = 0
KBY1 160949Z 22000KT 02/M00 A3032 RMK A01 T00211002  RH  085%=      5-min Rain = 0
KBY1 160950Z 24000KT 02/M00 A3032 RMK A01 T00201002  RH  085%=      5-min Rain = 0
KBY1 160951Z 24000KT 02/M00 A3032 RMK A01 T00191004  RH  085%=      5-min Rain = 0
KBY1 160952Z 24001KT 02/M01 A3032 RMK A01 T00181005  RH  085%=      5-min Rain = 0
KBY1 160953Z 24001KT 02/M01 A3032 RMK A01 T00161006  RH  085%=      5-min Rain = 0
KBY1 160954Z 25001KT 02/M01 A3032 RMK A01 T00151006  RH  086%=      5-min Rain = 0
KBY1 160955Z 27001KT 02/M00 A3032 RMK A01 T00151004  RH  087%=      5-min Rain = 0
KBY1 160956Z 27001KT 02/M00 A3032 RMK A01 T00151004  RH  087%=      5-min Rain = 0
KBY1 160957Z 28001KT 02/M00 A3032 RMK A01 T00151004  RH  087%=      5-min Rain = 0
KBY1 160958Z 29002KT 02/M00 A3032 RMK A01 T00151003  RH  088%=      5-min Rain = 0
KBY1 160959Z 28001KT 02/M00 A3032 RMK A01 T00151003  RH  088%=      5-min Rain = 0
KBY1 161000Z 27002KT 02/M00 A3032 RMK A01 T00161002  RH  088%=      5-min Rain = 0
KBY1 161001Z 28002KT 02/00 A3032 RMK A01 T00180000  RH  088%=      5-min Rain = 0
KBY1 161002Z 27001KT 02/00 A3032 RMK A01 T00200002  RH  088%=      5-min Rain = 0
KBY1 161003Z 27001KT 02/00 A3032 RMK A01 T00210002  RH  087%=      5-min Rain = 0
KBY1 161004Z 28001KT 02/00 A3032 RMK A01 T00230003  RH  086%=      5-min Rain = 0
KBY1 161005Z 29002KT 02/00 A3032 RMK A01 T00240002  RH  085%=      5-min Rain = 0
KBY1 161006Z 30002KT 03/00 A3032 RMK A01 T00260002  RH  085%=      5-min Rain = 0
KBY1 161007Z 28002KT 03/00 A3032 RMK A01 T00260002  RH  084%=      5-min Rain = 0
KBY1 161008Z 29001KT 03/00 A3032 RMK A01 T00270001  RH  083%=      5-min Rain = 0
KBY1 161009Z 28001KT 03/00 A3032 RMK A01 T00270001  RH  083%=      5-min Rain = 0
KBY1 161010Z 30001KT 03/00 A3032 RMK A01 T00270001  RH  083%=      5-min Rain = 0
KBY1 161011Z 30001KT 03/00 A3032 RMK A01 T00270001  RH  083%=      5-min Rain = 0
KBY1 161012Z 28001KT 03/00 A3032 RMK A01 T00280001  RH  083%=      5-min Rain = 0
KBY1 161013Z 28001KT 03/00 A3032 RMK A01 T00270001  RH  083%=      5-min Rain = 0
KBY1 161014Z 30001KT 03/00 A3032 RMK A01 T00280000  RH  082%=      5-min Rain = 0
KBY1 161015Z 30001KT 03/00 A3032 RMK A01 T00280001  RH  082%=      5-min Rain = 0
KBY1 161016Z 29001KT 03/00 A3032 RMK A01 T00280000  RH  082%=      5-min Rain = 0
KBY1 161017Z 31000KT 03/00 A3032 RMK A01 T00280000  RH  082%=      5-min Rain = 0
KBY1 161018Z 34000KT 03/00 A3032 RMK A01 T00280000  RH  082%=      5-min Rain = 0
KBY1 161019Z 19000KT 03/00 A3032 RMK A01 T00280000  RH  082%=      5-min Rain = 0
KBY1 161020Z 00000KT 03/00 A3032 RMK A01 T00270000  RH  082%=      5-min Rain = 0
KBY1 161021Z 12000KT 03/00 A3032 RMK A01 T00270000  RH  083%=      5-min Rain = 0
KBY1 161022Z 00000KT 03/00 A3032 RMK A01 T002500-0  RH  083%=      5-min Rain = 0
KBY1 161023Z 27000KT 03/00 A3032 RMK A01 T002500-0  RH  083%=      5-min Rain = 0
KBY1 161024Z 29000KT 02/M00 A3032 RMK A01 T00241001  RH  084%=      5-min Rain = 0
KBY1 161025Z 29000KT 02/M00 A3032 RMK A01 T00241001  RH  084%=      5-min Rain = 0
KBY1 161026Z 27001KT 02/M00 A3032 RMK A01 T00241001  RH  084%=      5-min Rain = 0
KBY1 161027Z 29000KT 02/M00 A3031 RMK A01 T00241001  RH  084%=      5-min Rain = 0
KBY1 161028Z 00000KT 02/M00 A3031 RMK A01 T00241001  RH  084%=      5-min Rain = 0
KBY1 161029Z 31001KT 02/M00 A3031 RMK A01 T00241001  RH  084%=      5-min Rain = 0
KBY1 161030Z 29000KT 02/M00 A3031 RMK A01 T00241001  RH  084%=      5-min Rain = 0
KBY1 161031Z 32000KT 02/M00 A3032 RMK A01 T00241001  RH  084%=      5-min Rain = 0
KBY1 161032Z 29001KT 02/M00 A3032 RMK A01 T00241001  RH  084%=      5-min Rain = 0
KBY1 161033Z 30002KT 02/M00 A3032 RMK A01 T00231001  RH  084%=      5-min Rain = 0
KBY1 161034Z 29002KT 02/M00 A3031 RMK A01 T00231002  RH  084%=      5-min Rain = 0
KBY1 161035Z 29003KT 02/M00 A3031 RMK A01 T00231002  RH  083%=      5-min Rain = 0
KBY1 161036Z 29002KT 02/M00 A3031 RMK A01 T00241002  RH  083%=      5-min Rain = 0
KBY1 161037Z 29002KT 02/M00 A3031 RMK A01 T00241003  RH  083%=      5-min Rain = 0
KBY1 161038Z 29002KT 02/M00 A3031 RMK A01 T00241003  RH  083%=      5-min Rain = 0
KBY1 161039Z 30001KT 02/M00 A3031 RMK A01 T00241003  RH  082%=      5-min Rain = 0
KBY1 161040Z 31001KT 02/M00 A3031 RMK A01 T00241003  RH  082%=      5-min Rain = 0
KBY1 161041Z 32000KT 02/M00 A3031 RMK A01 T00241003  RH  082%=      5-min Rain = 0
KBY1 161042Z 30001KT 02/M00 A3031 RMK A01 T00241002  RH  083%=      5-min Rain = 0
KBY1 161043Z 32002KT 02/M00 A3031 RMK A01 T00241003  RH  083%=      5-min Rain = 0
KBY1 161044Z 31002KT 02/M00 A3031 RMK A01 T00231003  RH  083%=      5-min Rain = 0
KBY1 161045Z 31003KT 02/M00 A3031 RMK A01 T00221003  RH  083%=      5-min Rain = 0
KBY1 161046Z 30003KT 02/M00 A3031 RMK A01 T00211004  RH  084%=      5-min Rain = 0
KBY1 161047Z 30003KT 02/M00 A3031 RMK A01 T00211004  RH  084%=      5-min Rain = 0
KBY1 161048Z 29003KT 02/M00 A3031 RMK A01 T00201003  RH  084%=      5-min Rain = 0
KBY1 161049Z 29003KT 02/M00 A3031 RMK A01 T00201003  RH  085%=      5-min Rain = 0
KBY1 161050Z 29003KT 02/M00 A3031 RMK A01 T00211002  RH  085%=      5-min Rain = 0
KBY1 161051Z 30003KT 02/M00 A3031 RMK A01 T00211002  RH  085%=      5-min Rain = 0
KBY1 161052Z 30002KT 02/M00 A3031 RMK A01 T00211002  RH  084%=      5-min Rain = 0
KBY1 161053Z 29002KT 02/M00 A3031 RMK A01 T00221002  RH  084%=      5-min Rain = 0
KBY1 161054Z 30003KT 02/M00 A3031 RMK A01 T00211002  RH  084%=      5-min Rain = 0
KBY1 161055Z 29003KT 02/M00 A3031 RMK A01 T00221002  RH  084%=      5-min Rain = 0
KBY1 161056Z 29003KT 02/M00 A3031 RMK A01 T00221002  RH  084%=      5-min Rain = 0
KBY1 161057Z 29003KT 02/M00 A3031 RMK A01 T00221002  RH  084%=      5-min Rain = 0
KBY1 161058Z 31002KT 02/M00 A3031 RMK A01 T00211002  RH  084%=      5-min Rain = 0
KBY1 161059Z 30001KT 02/M00 A3031 RMK A01 T00221002  RH  084%=      5-min Rain = 0
KBY1 161100Z 30002KT 02/M00 A3031 RMK A01 T00221002  RH  084%=      5-min Rain = 0
KBY1 161101Z 31002KT 02/M00 A3031 RMK A01 T00221002  RH  084%=      5-min Rain = 0
KBY1 161102Z 30002KT 02/M00 A3031 RMK A01 T00221002  RH  084%=      5-min Rain = 0
KBY1 161103Z 30001KT 02/M00 A3031 RMK A01 T00211002  RH  084%=      5-min Rain = 0
KBY1 161104Z 29002KT 02/M00 A3031 RMK A01 T00211002  RH  085%=      5-min Rain = 0
KBY1 161105Z 29001KT 02/M00 A3031 RMK A01 T00211002  RH  085%=      5-min Rain = 0
KBY1 161106Z 29001KT 02/M00 A303 RMK A01 T00211002  RH  085%=      5-min Rain = 0
KBY1 161107Z 29002KT 02/M00 A303 RMK A01 T00211002  RH  085%=      5-min Rain = 0
KBY1 161108Z 31002KT 02/M00 A303 RMK A01 T00211002  RH  085%=      5-min Rain = 0
KBY1 161109Z 29002KT 02/M00 A303 RMK A01 T00211002  RH  085%=      5-min Rain = 0
KBY1 161110Z 29002KT 02/M00 A303 RMK A01 T00201003  RH  085%=      5-min Rain = 0
KBY1 161111Z 31001KT 02/M00 A303 RMK A01 T00201002  RH  085%=      5-min Rain = 0
KBY1 161112Z 31001KT 02/M00 A303 RMK A01 T00201003  RH  085%=      5-min Rain = 0
KBY1 161113Z 33000KT 02/M00 A303 RMK A01 T00201002  RH  085%=      5-min Rain = 0
KBY1 161114Z 32000KT 02/M00 A303 RMK A01 T00191003  RH  085%=      5-min Rain = 0
KBY1 161115Z 28001KT 02/M00 A303 RMK A01 T00191003  RH  086%=      5-min Rain = 0
KBY1 161116Z 30002KT 02/M00 A303 RMK A01 T00191003  RH  086%=      5-min Rain = 0
KBY1 161117Z 30001KT 02/M00 A303 RMK A01 T00191003  RH  085%=      5-min Rain = 0
KBY1 161118Z 29002KT 02/M00 A303 RMK A01 T00191003  RH  085%=      5-min Rain = 0
KBY1 161119Z 30003KT 02/M00 A303 RMK A01 T00191003  RH  086%=      5-min Rain = 0
KBY1 161120Z 30002KT 02/M00 A303 RMK A01 T00191003  RH  086%=      5-min Rain = 0
KBY1 161121Z 29001KT 02/M00 A303 RMK A01 T00191003  RH  085%=      5-min Rain = 0
KBY1 161122Z 31000KT 02/M00 A303 RMK A01 T00191003  RH  085%=      5-min Rain = 0
KBY1 161123Z 30000KT 02/M00 A303 RMK A01 T00191003  RH  085%=      5-min Rain = 0
KBY1 161124Z 29002KT 02/M00 A303 RMK A01 T00191003  RH  086%=      5-min Rain = 0
KBY1 161125Z 28001KT 02/M00 A303 RMK A01 T00181004  RH  086%=      5-min Rain = 0
KBY1 161126Z 28001KT 02/M00 A303 RMK A01 T00181004  RH  086%=      5-min Rain = 0
KBY1 161127Z 29001KT 02/M00 A303 RMK A01 T00171004  RH  086%=      5-min Rain = 0
KBY1 161128Z 28002KT 02/M00 A303 RMK A01 T00171004  RH  086%=      5-min Rain = 0
KBY1 161129Z 29001KT 02/M00 A303 RMK A01 T00171004  RH  086%=      5-min Rain = 0
KBY1 161130Z 30001KT 02/M01 A303 RMK A01 T00171005  RH  086%=      5-min Rain = 0
KBY1 161131Z 29002KT 02/M01 A303 RMK A01 T00171005  RH  086%=      5-min Rain = 0
KBY1 161132Z 30002KT 02/M01 A303 RMK A01 T00171005  RH  085%=      5-min Rain = 0
KBY1 161133Z 29003KT 02/M01 A303 RMK A01 T00171006  RH  085%=      5-min Rain = 0
KBY1 161134Z 29003KT 02/M01 A303 RMK A01 T00171006  RH  085%=      5-min Rain = 0
KBY1 161135Z 29003KT 02/M01 A303 RMK A01 T00171006  RH  085%=      5-min Rain = 0
KBY1 161136Z 30003KT 02/M01 A303 RMK A01 T00171006  RH  084%=      5-min Rain = 0
KBY1 161137Z 30003KT 02/M01 A303 RMK A01 T00181006  RH  084%=      5-min Rain = 0
KBY1 161138Z 29003KT 02/M01 A303 RMK A01 T00181007  RH  084%=      5-min Rain = 0
KBY1 161139Z 28003KT 02/M01 A303 RMK A01 T00181006  RH  084%=      5-min Rain = 0
KBY1 161140Z 29001KT 02/M01 A303 RMK A01 T00171006  RH  084%=      5-min Rain = 0
KBY1 161141Z 30002KT 02/M01 A303 RMK A01 T00171006  RH  085%=      5-min Rain = 0
KBY1 161142Z 29003KT 02/M01 A303 RMK A01 T00171006  RH  085%=      5-min Rain = 0
KBY1 161143Z 28003KT 02/M01 A303 RMK A01 T00171006  RH  085%=      5-min Rain = 0
KBY1 161144Z 29003KT 02/M01 A303 RMK A01 T00171005  RH  085%=      5-min Rain = 0
KBY1 161145Z 29004KT 02/M01 A303 RMK A01 T00171005  RH  085%=      5-min Rain = 0
KBY1 161146Z 28002KT 02/M00 A303 RMK A01 T00171004  RH  086%=      5-min Rain = 0
KBY1 161147Z 28003KT 02/M00 A303 RMK A01 T00171004  RH  086%=      5-min Rain = 0
KBY1 161148Z 27002KT 02/M00 A303 RMK A01 T00181004  RH  086%=      5-min Rain = 0
KBY1 161149Z 28003KT 02/M00 A303 RMK A01 T00181004  RH  085%=      5-min Rain = 0
KBY1 161150Z 26004KT 02/M00 A303 RMK A01 T00181004  RH  085%=      5-min Rain = 0
KBY1 161151Z 27005KT 02/M00 A303 RMK A01 T00191004  RH  085%=      5-min Rain = 0
KBY1 161152Z 27006KT 02/M00 A303 RMK A01 T00191004  RH  085%=      5-min Rain = 0
KBY1 161153Z 28005KT 02/M00 A303 RMK A01 T00201004  RH  084%=      5-min Rain = 0
KBY1 161154Z 28004KT 02/M00 A303 RMK A01 T00201004  RH  084%=      5-min Rain = 0
KBY1 161155Z 28004KT 02/M00 A303 RMK A01 T00201004  RH  084%=      5-min Rain = 0
KBY1 161156Z 28004KT 02/M01 A303 RMK A01 T00201005  RH  084%=      5-min Rain = 0
KBY1 161157Z 28004KT 02/M01 A303 RMK A01 T00201005  RH  084%=      5-min Rain = 0
KBY1 161158Z 28004KT 02/M01 A303 RMK A01 T00191005  RH  084%=      5-min Rain = 0
KBY1 161159Z 27004KT 02/M01 A303 RMK A01 T00191005  RH  084%=      5-min Rain = 0
KBY1 161200Z 28004KT 02/M01 A303 RMK A01 T00191006  RH  084%=      5-min Rain = 0
KBY1 161201Z 28004KT 02/M01 A303 RMK A01 T00191006  RH  084%=      5-min Rain = 0
KBY1 161202Z 27005KT 02/M01 A303 RMK A01 T00181006  RH  084%=      5-min Rain = 0
KBY1 161203Z 28004KT 02/M01 A303 RMK A01 T00181006  RH  084%=      5-min Rain = 0
KBY1 161204Z 27005KT 02/M01 A303 RMK A01 T00181006  RH  084%=      5-min Rain = 0
KBY1 161205Z 27005KT 02/M01 A303 RMK A01 T00181006  RH  084%=      5-min Rain = 0
KBY1 161206Z 27005KT 02/M01 A303 RMK A01 T00181006  RH  084%=      5-min Rain = 0
KBY1 161207Z 27005KT 02/M01 A303 RMK A01 T00181006  RH  084%=      5-min Rain = 0
KBY1 161208Z 28005KT 02/M01 A303 RMK A01 T00171006  RH  084%=      5-min Rain = 0
KBY1 161209Z 27006KT 02/M01 A303 RMK A01 T00171007  RH  084%=      5-min Rain = 0
KBY1 161210Z 27006KT 02/M01 A303 RMK A01 T00171007  RH  084%=      5-min Rain = 0
KBY1 161211Z 28005KT 02/M01 A303 RMK A01 T00171007  RH  084%=      5-min Rain = 0
KBY1 161212Z 28005KT 02/M01 A303 RMK A01 T00171007  RH  084%=      5-min Rain = 0
KBY1 161213Z 27006KT 02/M01 A303 RMK A01 T00171007  RH  084%=      5-min Rain = 0
KBY1 161214Z 27005KT 02/M01 A303 RMK A01 T00181007  RH  083%=      5-min Rain = 0
KBY1 161215Z 27005KT 02/M01 A303 RMK A01 T00181007  RH  083%=      5-min Rain = 0
KBY1 161216Z 27006KT 02/M01 A303 RMK A01 T00181008  RH  083%=      5-min Rain = 0
KBY1 161217Z 27006KT 02/M01 A303 RMK A01 T00181007  RH  083%=      5-min Rain = 0
KBY1 161218Z 28006KT 02/M01 A303 RMK A01 T00181008  RH  083%=      5-min Rain = 0
KBY1 161219Z 27006KT 02/M01 A303 RMK A01 T00181008  RH  083%=      5-min Rain = 0
KBY1 161220Z 27006KT 02/M01 A303 RMK A01 T00181007  RH  083%=      5-min Rain = 0
KBY1 161221Z 27005KT 02/M01 A303 RMK A01 T00181007  RH  083%=      5-min Rain = 0
KBY1 161222Z 28005KT 02/M01 A303 RMK A01 T00181007  RH  083%=      5-min Rain = 0
KBY1 161223Z 28004KT 02/M01 A303 RMK A01 T00181007  RH  083%=      5-min Rain = 0
KBY1 161224Z 28005KT 02/M01 A303 RMK A01 T00181007  RH  083%=      5-min Rain = 0
KBY1 161225Z 28005KT 02/M01 A303 RMK A01 T00181007  RH  083%=      5-min Rain = 0
KBY1 161226Z 27004KT 02/M01 A303 RMK A01 T00181007  RH  083%=      5-min Rain = 0
KBY1 161227Z 27005KT 02/M01 A303 RMK A01 T00181007  RH  084%=      5-min Rain = 0
KBY1 161228Z 27005KT 02/M01 A303 RMK A01 T00181006  RH  084%=      5-min Rain = 0
KBY1 161229Z 27006KT 02/M01 A303 RMK A01 T00171007  RH  084%=      5-min Rain = 0
KBY1 161230Z 27006KT 02/M01 A303 RMK A01 T00171007  RH  084%=      5-min Rain = 0
KBY1 161231Z 27005KT 02/M01 A303 RMK A01 T00181007  RH  084%=      5-min Rain = 0
KBY1 161232Z 28004KT 02/M01 A303 RMK A01 T00171007  RH  084%=      5-min Rain = 0
KBY1 161233Z 28004KT 02/M01 A303 RMK A01 T00171007  RH  084%=      5-min Rain = 0
KBY1 161234Z 28004KT 02/M01 A303 RMK A01 T00181007  RH  084%=      5-min Rain = 0
KBY1 161235Z 27005KT 02/M01 A303 RMK A01 T00181007  RH  084%=      5-min Rain = 0
KBY1 161236Z 28004KT 02/M01 A303 RMK A01 T00181007  RH  084%=      5-min Rain = 0
KBY1 161237Z 27004KT 02/M01 A303 RMK A01 T00171007  RH  084%=      5-min Rain = 0
KBY1 161238Z 27004KT 02/M01 A303 RMK A01 T00171008  RH  084%=      5-min Rain = 0
KBY1 161239Z 27004KT 02/M01 A303 RMK A01 T00171007  RH  084%=      5-min Rain = 0
KBY1 161240Z 28003KT 02/M01 A303 RMK A01 T00161008  RH  084%=      5-min Rain = 0
KBY1 161241Z 28003KT 02/M01 A303 RMK A01 T00161008  RH  084%=      5-min Rain = 0
KBY1 161242Z 28003KT 02/M01 A303 RMK A01 T00151008  RH  085%=      5-min Rain = 0
KBY1 161243Z 28003KT 02/M01 A303 RMK A01 T00151008  RH  085%=      5-min Rain = 0
KBY1 161244Z 29004KT 01/M01 A303 RMK A01 T00141008  RH  085%=      5-min Rain = 0
KBY1 161245Z 28004KT 01/M01 A303 RMK A01 T00141008  RH  085%=      5-min Rain = 0
KBY1 161246Z 28005KT 02/M01 A303 RMK A01 T00151008  RH  085%=      5-min Rain = 0
KBY1 161247Z 29006KT 02/M01 A303 RMK A01 T00151008  RH  085%=      5-min Rain = 0
KBY1 161248Z 28006KT 02/M01 A303 RMK A01 T00161008  RH  084%=      5-min Rain = 0
KBY1 161249Z 28006KT 02/M01 A303 RMK A01 T00171009  RH  083%=      5-min Rain = 0
KBY1 161250Z 28005KT 02/M01 A303 RMK A01 T00181009  RH  082%=      5-min Rain = 0
KBY1 161251Z 28007KT 02/M01 A303 RMK A01 T00181009  RH  082%=      5-min Rain = 0
KBY1 161252Z 27004KT 02/M01 A303 RMK A01 T00181009  RH  082%=      5-min Rain = 0
KBY1 161253Z 27005KT 02/M01 A303 RMK A01 T00181009  RH  082%=      5-min Rain = 0
KBY1 161254Z 28005KT 02/M01 A303 RMK A01 T00171009  RH  082%=      5-min Rain = 0
KBY1 161255Z 28006KT 02/M01 A303 RMK A01 T00171009  RH  083%=      5-min Rain = 0
KBY1 161256Z 28006KT 02/M01 A3029 RMK A01 T00171010  RH  083%=      5-min Rain = 0
KBY1 161257Z 29007KT 02/M01 A3029 RMK A01 T00171010  RH  083%=      5-min Rain = 0
KBY1 161258Z 28008KT 02/M01 A3029 RMK A01 T00171010  RH  082%=      5-min Rain = 0
KBY1 161259Z 29009KT 02/M01 A3029 RMK A01 T00171010  RH  082%=      5-min Rain = 0
KBY1 161300Z 29008KT 02/M01 A3029 RMK A01 T00171010  RH  082%=      5-min Rain = 0
KBY1 161301Z 28007KT 02/M01 A3029 RMK A01 T00181010  RH  082%=      5-min Rain = 0
KBY1 161302Z 29006KT 02/M01 A3029 RMK A01 T00171010  RH  082%=      5-min Rain = 0
KBY1 161303Z 29007KT 02/M01 A303 RMK A01 T00171010  RH  082%=      5-min Rain = 0
KBY1 161304Z 29007KT 02/M01 A303 RMK A01 T00181011  RH  081%=      5-min Rain = 0
KBY1 161305Z 28006KT 02/M01 A303 RMK A01 T00181011  RH  081%=      5-min Rain = 0
KBY1 161306Z 28004KT 02/M01 A303 RMK A01 T00181011  RH  081%=      5-min Rain = 0
KBY1 161307Z 28005KT 02/M01 A303 RMK A01 T00181011  RH  081%=      5-min Rain = 0
KBY1 161308Z 28006KT 02/M01 A303 RMK A01 T00181010  RH  081%=      5-min Rain = 0
KBY1 161309Z 29005KT 02/M01 A303 RMK A01 T00181011  RH  081%=      5-min Rain = 0
KBY1 161310Z 29005KT 02/M01 A303 RMK A01 T00181011  RH  081%=      5-min Rain = 0
KBY1 161311Z 29005KT 02/M01 A303 RMK A01 T00181011  RH  082%=      5-min Rain = 0
KBY1 161312Z 28005KT 02/M01 A303 RMK A01 T00181010  RH  082%=      5-min Rain = 0
KBY1 161313Z 28005KT 02/M01 A303 RMK A01 T00171011  RH  082%=      5-min Rain = 0
KBY1 161314Z 28003KT 02/M01 A303 RMK A01 T00171011  RH  082%=      5-min Rain = 0
KBY1 161315Z 28003KT 02/M01 A303 RMK A01 T00171011  RH  082%=      5-min Rain = 0
KBY1 161316Z 28004KT 02/M01 A303 RMK A01 T00181011  RH  081%=      5-min Rain = 0
KBY1 161317Z 27003KT 02/M01 A303 RMK A01 T00181011  RH  081%=      5-min Rain = 0
KBY1 161318Z 26002KT 02/M01 A303 RMK A01 T00181011  RH  081%=      5-min Rain = 0
KBY1 161319Z 26003KT 02/M01 A303 RMK A01 T00181011  RH  081%=      5-min Rain = 0
KBY1 161320Z 25002KT 02/M01 A303 RMK A01 T00181011  RH  081%=      5-min Rain = 0
KBY1 161321Z 25003KT 02/M01 A303 RMK A01 T00181010  RH  082%=      5-min Rain = 0
KBY1 161322Z 25004KT 02/M01 A303 RMK A01 T00181010  RH  082%=      5-min Rain = 0
KBY1 161323Z 26003KT 02/M01 A303 RMK A01 T00181010  RH  082%=      5-min Rain = 0
KBY1 161324Z 26003KT 02/M01 A303 RMK A01 T00191009  RH  082%=      5-min Rain = 0
KBY1 161325Z 26003KT 02/M01 A303 RMK A01 T00191009  RH  082%=      5-min Rain = 0
KBY1 161326Z 27004KT 02/M01 A303 RMK A01 T00191009  RH  082%=      5-min Rain = 0
KBY1 161327Z 26006KT 02/M01 A303 RMK A01 T00201009  RH  081%=      5-min Rain = 0
KBY1 161328Z 27004KT 02/M01 A303 RMK A01 T00201010  RH  081%=      5-min Rain = 0
KBY1 161329Z 28004KT 02/M01 A303 RMK A01 T00201010  RH  080%=      5-min Rain = 0
KBY1 161330Z 27005KT 02/M01 A303 RMK A01 T00201010  RH  080%=      5-min Rain = 0
KBY1 161331Z 26005KT 02/M01 A303 RMK A01 T00211010  RH  080%=      5-min Rain = 0
KBY1 161332Z 26005KT 02/M01 A303 RMK A01 T00211010  RH  080%=      5-min Rain = 0
KBY1 161333Z 26004KT 02/M01 A303 RMK A01 T00211009  RH  080%=      5-min Rain = 0
KBY1 161334Z 27003KT 02/M01 A303 RMK A01 T00221009  RH  080%=      5-min Rain = 0
KBY1 161335Z 29002KT 02/M01 A3031 RMK A01 T00221008  RH  080%=      5-min Rain = 0
KBY1 161336Z 27002KT 02/M01 A3031 RMK A01 T00231008  RH  080%=      5-min Rain = 0
KBY1 161337Z 27002KT 02/M01 A3031 RMK A01 T00241007  RH  080%=      5-min Rain = 0
KBY1 161338Z 27003KT 02/M01 A3031 RMK A01 T00241007  RH  080%=      5-min Rain = 0
KBY1 161339Z 28002KT 03/M01 A3031 RMK A01 T00251007  RH  080%=      5-min Rain = 0
KBY1 161340Z 27003KT 03/M01 A3031 RMK A01 T00251008  RH  079%=      5-min Rain = 0
KBY1 161341Z 29002KT 03/M01 A3031 RMK A01 T00251007  RH  079%=      5-min Rain = 0
KBY1 161342Z 29002KT 03/M01 A3031 RMK A01 T00251006  RH  080%=      5-min Rain = 0
KBY1 161343Z 27003KT 03/M01 A3031 RMK A01 T00261006  RH  079%=      5-min Rain = 0
KBY1 161344Z 30004KT 03/M01 A3031 RMK A01 T00271006  RH  079%=      5-min Rain = 0
KBY1 161345Z 28001KT 03/M01 A3031 RMK A01 T00271006  RH  079%=      5-min Rain = 0
KBY1 161346Z 29003KT 03/M01 A3031 RMK A01 T00281005  RH  079%=      5-min Rain = 0
KBY1 161347Z 29002KT 03/M01 A3031 RMK A01 T00291006  RH  078%=      5-min Rain = 0
KBY1 161348Z 28002KT 03/M01 A3031 RMK A01 T00301006  RH  077%=      5-min Rain = 0
KBY1 161349Z 28003KT 03/M01 A3031 RMK A01 T00311006  RH  077%=      5-min Rain = 0
KBY1 161350Z 27003KT 03/M01 A3031 RMK A01 T00311006  RH  076%=      5-min Rain = 0
KBY1 161351Z 29005KT 03/M01 A3031 RMK A01 T00321007  RH  076%=      5-min Rain = 0
KBY1 161352Z 28005KT 03/M01 A3031 RMK A01 T00321007  RH  075%=      5-min Rain = 0
KBY1 161353Z 29004KT 03/M01 A3031 RMK A01 T00321008  RH  075%=      5-min Rain = 0
KBY1 161354Z 29006KT 03/M01 A3031 RMK A01 T00331007  RH  075%=      5-min Rain = 0
KBY1 161355Z 29005KT 03/M01 A303 RMK A01 T00341007  RH  075%=      5-min Rain = 0
KBY1 161356Z 29005KT 03/M01 A303 RMK A01 T00341007  RH  074%=      5-min Rain = 0
KBY1 161357Z 29006KT 03/M01 A3031 RMK A01 T00341007  RH  075%=      5-min Rain = 0
KBY1 161358Z 28005KT 04/M01 A3031 RMK A01 T00351006  RH  075%=      5-min Rain = 0
KBY1 161359Z 29005KT 04/M01 A3031 RMK A01 T00361005  RH  075%=      5-min Rain = 0
KBY1 161400Z 27004KT 04/M00 A3031 RMK A01 T00361004  RH  075%=      5-min Rain = 0
KBY1 161401Z 26006KT 04/M01 A3031 RMK A01 T00371005  RH  074%=      5-min Rain = 0
KBY1 161402Z 28005KT 04/M00 A3031 RMK A01 T00371004  RH  074%=      5-min Rain = 0
KBY1 161403Z 28005KT 04/M00 A3031 RMK A01 T00371004  RH  075%=      5-min Rain = 0
KBY1 161404Z 27005KT 04/M00 A3031 RMK A01 T00381003  RH  074%=      5-min Rain = 0
KBY1 161405Z 28006KT 04/M00 A3031 RMK A01 T00391004  RH  074%=      5-min Rain = 0
KBY1 161406Z 27005KT 04/M00 A3031 RMK A01 T00401004  RH  073%=      5-min Rain = 0
KBY1 161407Z 27005KT 04/M01 A3031 RMK A01 T00401005  RH  073%=      5-min Rain = 0
KBY1 161408Z 27006KT 04/M01 A3031 RMK A01 T00401005  RH  072%=      5-min Rain = 0
KBY1 161409Z 27006KT 04/M01 A3031 RMK A01 T00401005  RH  072%=      5-min Rain = 0
KBY1 161410Z 26006KT 04/M00 A3031 RMK A01 T00411004  RH  072%=      5-min Rain = 0
KBY1 161411Z 26006KT 04/M00 A3031 RMK A01 T00421004  RH  072%=      5-min Rain = 0
KBY1 161412Z 26006KT 04/M00 A3031 RMK A01 T00421003  RH  072%=      5-min Rain = 0
KBY1 161413Z 27006KT 04/M00 A3031 RMK A01 T00441003  RH  072%=      5-min Rain = 0
KBY1 161414Z 26005KT 04/M00 A3031 RMK A01 T00441003  RH  071%=      5-min Rain = 0
KBY1 161415Z 27004KT 05/M00 A3031 RMK A01 T00451001  RH  072%=      5-min Rain = 0
KBY1 161416Z 26005KT 05/M00 A3031 RMK A01 T00461002  RH  071%=      5-min Rain = 0
KBY1 161417Z 27006KT 05/M00 A3031 RMK A01 T00461002  RH  071%=      5-min Rain = 0
KBY1 161418Z 27007KT 05/M00 A3031 RMK A01 T00461003  RH  070%=      5-min Rain = 0
KBY1 161419Z 26006KT 05/M00 A3031 RMK A01 T00461003  RH  071%=      5-min Rain = 0
KBY1 161420Z 26007KT 05/M00 A3031 RMK A01 T00461002  RH  071%=      5-min Rain = 0
KBY1 161421Z 27005KT 05/M00 A3031 RMK A01 T00461002  RH  071%=      5-min Rain = 0
KBY1 161422Z 27006KT 05/M00 A3031 RMK A01 T00471002  RH  071%=      5-min Rain = 0
KBY1 161423Z 28005KT 05/M00 A3031 RMK A01 T00471001  RH  071%=      5-min Rain = 0
KBY1 161424Z 27004KT 05/00 A3031 RMK A01 T00480000  RH  071%=      5-min Rain = 0
KBY1 161425Z 27005KT 05/00 A3031 RMK A01 T00510003  RH  071%=      5-min Rain = 0
KBY1 161426Z 26006KT 05/00 A3031 RMK A01 T00520000  RH  069%=      5-min Rain = 0
KBY1 161427Z 28006KT 05/M00 A3031 RMK A01 T00531001  RH  068%=      5-min Rain = 0
KBY1 161428Z 29006KT 05/M00 A3031 RMK A01 T00531001  RH  068%=      5-min Rain = 0
KBY1 161429Z 29005KT 05/M00 A3031 RMK A01 T00541001  RH  068%=      5-min Rain = 0
KBY1 161430Z 26005KT 06/00 A3031 RMK A01 T00550000  RH  068%=      5-min Rain = 0
KBY1 161431Z 27006KT 06/00 A3031 RMK A01 T005600-0  RH  067%=      5-min Rain = 0
KBY1 161432Z 28005KT 06/00 A3031 RMK A01 T00560001  RH  068%=      5-min Rain = 0
KBY1 161433Z 29007KT 06/00 A3031 RMK A01 T00580001  RH  067%=      5-min Rain = 0
KBY1 161434Z 29006KT 06/M00 A3031 RMK A01 T00581002  RH  066%=      5-min Rain = 0
KBY1 161435Z 29004KT 06/M00 A3031 RMK A01 T00571002  RH  065%=      5-min Rain = 0
KBY1 161436Z 28005KT 06/M00 A3031 RMK A01 T00571001  RH  066%=      5-min Rain = 0
KBY1 161437Z 27005KT 06/00 A3031 RMK A01 T00590001  RH  066%=      5-min Rain = 0
KBY1 161438Z 28006KT 06/M00 A3031 RMK A01 T00591001  RH  065%=      5-min Rain = 0
KBY1 161439Z 27005KT 06/00 A3031 RMK A01 T00610001  RH  066%=      5-min Rain = 0
KBY1 161440Z 26005KT 06/00 A3031 RMK A01 T00610000  RH  065%=      5-min Rain = 0
KBY1 161441Z 28004KT 06/M00 A3031 RMK A01 T00611001  RH  065%=      5-min Rain = 0
KBY1 161442Z 29005KT 06/00 A3031 RMK A01 T006100-0  RH  065%=      5-min Rain = 0
KBY1 161443Z 29006KT 06/M00 A3031 RMK A01 T00611001  RH  065%=      5-min Rain = 0
KBY1 161444Z 26005KT 06/00 A3031 RMK A01 T00610000  RH  065%=      5-min Rain = 0
KBY1 161445Z 29004KT 06/00 A3031 RMK A01 T00610001  RH  065%=      5-min Rain = 0
KBY1 161446Z 28004KT 06/00 A3032 RMK A01 T00610001  RH  065%=      5-min Rain = 0
KBY1 161447Z 28004KT 06/00 A3032 RMK A01 T00640003  RH  065%=      5-min Rain = 0
KBY1 161448Z 29004KT 07/00 A3032 RMK A01 T00660003  RH  064%=      5-min Rain = 0
KBY1 161449Z 29005KT 07/00 A3032 RMK A01 T00670002  RH  063%=      5-min Rain = 0
KBY1 161450Z 28003KT 07/00 A3032 RMK A01 T00670003  RH  063%=      5-min Rain = 0
KBY1 161451Z 26003KT 07/01 A3032 RMK A01 T00680005  RH  064%=      5-min Rain = 0
KBY1 161452Z 26004KT 07/01 A3032 RMK A01 T00690005  RH  063%=      5-min Rain = 0
KBY1 161453Z 27004KT 07/00 A3032 RMK A01 T00690003  RH  063%=      5-min Rain = 0
KBY1 161454Z 26004KT 07/00 A3032 RMK A01 T00690003  RH  063%=      5-min Rain = 0
KBY1 161455Z 26004KT 07/00 A3032 RMK A01 T00690004  RH  063%=      5-min Rain = 0
KBY1 161456Z 29002KT 07/01 A3032 RMK A01 T00690005  RH  063%=      5-min Rain = 0
KBY1 161457Z 27004KT 07/01 A3032 RMK A01 T00720005  RH  062%=      5-min Rain = 0
KBY1 161458Z 27005KT 07/00 A3032 RMK A01 T00730003  RH  061%=      5-min Rain = 0
KBY1 161459Z 27005KT 08/00 A3032 RMK A01 T00750004  RH  061%=      5-min Rain = 0
KBY1 161500Z 27004KT 08/00 A3032 RMK A01 T00750004  RH  060%=      5-min Rain = 0
KBY1 161501Z 26003KT 07/00 A3032 RMK A01 T00740003  RH  061%=      5-min Rain = 0
KBY1 161502Z 25004KT 08/01 A3032 RMK A01 T00750005  RH  061%=      5-min Rain = 0
KBY1 161503Z 24004KT 08/01 A3032 RMK A01 T00770005  RH  060%=      5-min Rain = 0
KBY1 161504Z 24004KT 08/01 A3032 RMK A01 T00790005  RH  059%=      5-min Rain = 0
KBY1 161505Z 24005KT 08/00 A3032 RMK A01 T00790004  RH  059%=      5-min Rain = 0
KBY1 161506Z 25003KT 08/01 A3032 RMK A01 T00800005  RH  059%=      5-min Rain = 0
KBY1 161507Z 24004KT 08/01 A3031 RMK A01 T00820006  RH  059%=      5-min Rain = 0
KBY1 161508Z 25003KT 08/01 A3031 RMK A01 T00830005  RH  058%=      5-min Rain = 0
KBY1 161509Z 26003KT 08/01 A3031 RMK A01 T00830005  RH  058%=      5-min Rain = 0
KBY1 161510Z 29003KT 08/01 A3031 RMK A01 T00830006  RH  058%=      5-min Rain = 0
KBY1 161511Z 29003KT 08/01 A3031 RMK A01 T00840006  RH  058%=      5-min Rain = 0
KBY1 161512Z 24002KT 08/01 A3031 RMK A01 T00840006  RH  058%=      5-min Rain = 0
KBY1 161513Z 24004KT 08/01 A3031 RMK A01 T00840006  RH  058%=      5-min Rain = 0
KBY1 161514Z 25003KT 09/01 A3031 RMK A01 T00860007  RH  058%=      5-min Rain = 0
KBY1 161515Z 26003KT 09/01 A3031 RMK A01 T00870006  RH  057%=      5-min Rain = 0
KBY1 161516Z 27002KT 09/01 A3031 RMK A01 T00870008  RH  058%=      5-min Rain = 0
KBY1 161517Z 24001KT 09/01 A3031 RMK A01 T00880008  RH  057%=      5-min Rain = 0
KBY1 161518Z 25001KT 09/01 A3031 RMK A01 T00900010  RH  057%=      5-min Rain = 0
KBY1 161519Z 31002KT 09/01 A3031 RMK A01 T00930010  RH  056%=      5-min Rain = 0
KBY1 161520Z 27002KT 09/01 A3031 RMK A01 T00930009  RH  055%=      5-min Rain = 0
KBY1 161521Z 27002KT 09/01 A3031 RMK A01 T00930009  RH  055%=      5-min Rain = 0
KBY1 161522Z 26002KT 09/01 A3031 RMK A01 T00930008  RH  055%=      5-min Rain = 0
KBY1 161523Z 26001KT 09/01 A3031 RMK A01 T00930010  RH  056%=      5-min Rain = 0
KBY1 161524Z 27002KT 10/01 A3031 RMK A01 T00950011  RH  056%=      5-min Rain = 0
KBY1 161525Z 25003KT 10/01 A3031 RMK A01 T00970012  RH  055%=      5-min Rain = 0
KBY1 161526Z 26004KT 10/01 A3031 RMK A01 T00990010  RH  054%=      5-min Rain = 0
KBY1 161527Z 26003KT 10/01 A3031 RMK A01 T01000009  RH  053%=      5-min Rain = 0
KBY1 161528Z 27004KT 10/01 A3031 RMK A01 T01010010  RH  053%=      5-min Rain = 0
KBY1 161529Z 27004KT 10/01 A3031 RMK A01 T01020008  RH  052%=      5-min Rain = 0
KBY1 161530Z 26003KT 10/01 A303 RMK A01 T01030008  RH  052%=      5-min Rain = 0
KBY1 161531Z 28003KT 11/01 A303 RMK A01 T01050009  RH  052%=      5-min Rain = 0
KBY1 161532Z 29004KT 11/01 A303 RMK A01 T01070011  RH  052%=      5-min Rain = 0
KBY1 161533Z 27004KT 11/01 A303 RMK A01 T01070010  RH  051%=      5-min Rain = 0
KBY1 161534Z 26004KT 11/01 A303 RMK A01 T01080011  RH  051%=      5-min Rain = 0
KBY1 161535Z 26004KT 11/01 A303 RMK A01 T01080012  RH  052%=      5-min Rain = 0
KBY1 161536Z 29003KT 11/01 A303 RMK A01 T01080012  RH  052%=      5-min Rain = 0
KBY1 161537Z 27004KT 11/01 A303 RMK A01 T01080013  RH  052%=      5-min Rain = 0
KBY1 161538Z 29003KT 11/01 A303 RMK A01 T01100013  RH  051%=      5-min Rain = 0
KBY1 161539Z 27003KT 11/01 A303 RMK A01 T01110014  RH  051%=      5-min Rain = 0
KBY1 161540Z 27004KT 11/01 A303 RMK A01 T01130013  RH  050%=      5-min Rain = 0
KBY1 161541Z 29003KT 11/01 A303 RMK A01 T01130012  RH  050%=      5-min Rain = 0
KBY1 161542Z 27005KT 11/01 A303 RMK A01 T01140013  RH  050%=      5-min Rain = 0
KBY1 161543Z 27005KT 12/01 A303 RMK A01 T01160014  RH  049%=      5-min Rain = 0
KBY1 161544Z 28004KT 12/01 A303 RMK A01 T01170011  RH  048%=      5-min Rain = 0
KBY1 161545Z 28004KT 12/01 A303 RMK A01 T01170012  RH  049%=      5-min Rain = 0
KBY1 161546Z 28003KT 12/01 A303 RMK A01 T01180013  RH  049%=      5-min Rain = 0
KBY1 161547Z 27005KT 12/01 A3029 RMK A01 T01190014  RH  049%=      5-min Rain = 0
KBY1 161548Z 27006KT 12/01 A3029 RMK A01 T01210013  RH  047%=      5-min Rain = 0
KBY1 161549Z 28004KT 12/01 A3029 RMK A01 T01220013  RH  047%=      5-min Rain = 0
KBY1 161550Z 26003KT 12/02 A3029 RMK A01 T01230015  RH  047%=      5-min Rain = 0
KBY1 161551Z 26004KT 13/02 A3029 RMK A01 T01260017  RH  047%=      5-min Rain = 0
KBY1 161552Z 25005KT 13/01 A3029 RMK A01 T01270014  RH  046%=      5-min Rain = 0
KBY1 161553Z 27003KT 13/02 A3029 RMK A01 T01280017  RH  047%=      5-min Rain = 0
KBY1 161554Z 27004KT 13/02 A3029 RMK A01 T01310016  RH  045%=      5-min Rain = 0
KBY1 161555Z 26002KT 13/01 A3029 RMK A01 T01310013  RH  045%=      5-min Rain = 0
KBY1 161556Z 27003KT 13/02 A3029 RMK A01 T01310017  RH  046%=      5-min Rain = 0
KBY1 161557Z 26004KT 13/02 A3029 RMK A01 T01330016  RH  045%=      5-min Rain = 0
KBY1 161558Z 26004KT 13/01 A3029 RMK A01 T01320013  RH  044%=      5-min Rain = 0
KBY1 161559Z 26004KT 13/01 A3029 RMK A01 T01310014  RH  045%=      5-min Rain = 0
KBY1 161600Z 28002KT 13/01 A3029 RMK A01 T01310014  RH  045%=      5-min Rain = 0
KBY1 161601Z 27001KT 13/01 A3029 RMK A01 T01310012  RH  044%=      5-min Rain = 0
KBY1 161602Z 29002KT 13/01 A3029 RMK A01 T01320014  RH  044%=      5-min Rain = 0
KBY1 161603Z 30004KT 14/01 A3029 RMK A01 T01350014  RH  044%=      5-min Rain = 0
KBY1 161604Z 28003KT 14/02 A3029 RMK A01 T01360016  RH  044%=      5-min Rain = 0
KBY1 161605Z 25001KT 14/02 A3029 RMK A01 T01380018  RH  044%=      5-min Rain = 0
KBY1 161606Z 24002KT 14/02 A3029 RMK A01 T01420018  RH  043%=      5-min Rain = 0
KBY1 161607Z 20000KT 14/02 A3029 RMK A01 T01430016  RH  042%=      5-min Rain = 0
KBY1 161608Z 28001KT 15/02 A3029 RMK A01 T01460022  RH  043%=      5-min Rain = 0
KBY1 161609Z 29006KT 15/02 A3029 RMK A01 T01480017  RH  041%=      5-min Rain = 0
KBY1 161610Z 25007KT 15/01 A3028 RMK A01 T01490014  RH  040%=      5-min Rain = 0
KBY1 161611Z 24004KT 15/01 A3029 RMK A01 T01480013  RH  040%=      5-min Rain = 0
KBY1 161612Z 27004KT 15/01 A3029 RMK A01 T01480014  RH  040%=      5-min Rain = 0
KBY1 161613Z 24004KT 15/01 A3028 RMK A01 T01510012  RH  039%=      5-min Rain = 0
KBY1 161614Z 24005KT 15/01 A3028 RMK A01 T01520013  RH  039%=      5-min Rain = 0
KBY1 161615Z 25003KT 16/02 A3028 RMK A01 T01550017  RH  039%=      5-min Rain = 0
KBY1 161616Z 26006KT 16/01 A3028 RMK A01 T01580014  RH  038%=      5-min Rain = 0
KBY1 161617Z 25003KT 16/01 A3028 RMK A01 T01570013  RH  038%=      5-min Rain = 0
KBY1 161618Z 26003KT 16/02 A3028 RMK A01 T01550015  RH  039%=      5-min Rain = 0
KBY1 161619Z 29002KT 16/02 A3028 RMK A01 T01560020  RH  040%=      5-min Rain = 0
KBY1 161620Z 27004KT 16/02 A3028 RMK A01 T01590016  RH  038%=      5-min Rain = 0
KBY1 161621Z 28004KT 16/01 A3028 RMK A01 T01600011  RH  036%=      5-min Rain = 0
KBY1 161622Z 26004KT 16/01 A3028 RMK A01 T01610009  RH  036%=      5-min Rain = 0
KBY1 161623Z 25005KT 16/01 A3028 RMK A01 T01610013  RH  037%=      5-min Rain = 0
KBY1 161624Z 25004KT 16/02 A3028 RMK A01 T01610016  RH  037%=      5-min Rain = 0
KBY1 161625Z 27003KT 16/02 A3028 RMK A01 T01620015  RH  037%=      5-min Rain = 0
KBY1 161626Z 25002KT 16/02 A3028 RMK A01 T01630015  RH  037%=      5-min Rain = 0
KBY1 161627Z 30005KT 17/02 A3028 RMK A01 T01650015  RH  036%=      5-min Rain = 0
KBY1 161628Z 27005KT 17/01 A3028 RMK A01 T01650013  RH  036%=      5-min Rain = 0
KBY1 161629Z 27004KT 16/01 A3028 RMK A01 T01640009  RH  035%=      5-min Rain = 0
KBY1 161630Z 29004KT 16/01 A3028 RMK A01 T01620010  RH  036%=      5-min Rain = 0
KBY1 161631Z 28005KT 16/01 A3028 RMK A01 T01620014  RH  037%=      5-min Rain = 0
KBY1 161632Z 26003KT 16/02 A3028 RMK A01 T01640017  RH  037%=      5-min Rain = 0
KBY1 161633Z 26002KT 17/02 A3028 RMK A01 T01650015  RH  036%=      5-min Rain = 0
KBY1 161634Z 28003KT 17/02 A3028 RMK A01 T01650015  RH  036%=      5-min Rain = 0
KBY1 161635Z 30007KT 17/02 A3027 RMK A01 T01660017  RH  037%=      5-min Rain = 0
KBY1 161636Z 29006KT 17/02 A3027 RMK A01 T01660016  RH  036%=      5-min Rain = 0
KBY1 161637Z 29004KT 17/02 A3027 RMK A01 T01660015  RH  036%=      5-min Rain = 0
KBY1 161638Z 28004KT 17/02 A3027 RMK A01 T01650017  RH  037%=      5-min Rain = 0
KBY1 161639Z 25005KT 17/02 A3027 RMK A01 T01660017  RH  037%=      5-min Rain = 0
KBY1 161640Z 26004KT 17/02 A3027 RMK A01 T01670015  RH  036%=      5-min Rain = 0
KBY1 161641Z 25005KT 17/02 A3027 RMK A01 T01680015  RH  036%=      5-min Rain = 0
KBY1 161642Z 28005KT 17/01 A3027 RMK A01 T01710013  RH  034%=      5-min Rain = 0
KBY1 161643Z 24007KT 17/01 A3027 RMK A01 T01720011  RH  034%=      5-min Rain = 0
KBY1 161644Z 25006KT 17/01 A3027 RMK A01 T01720007  RH  033%=      5-min Rain = 0
KBY1 161645Z 27007KT 17/01 A3027 RMK A01 T01730009  RH  033%=      5-min Rain = 0
KBY1 161646Z 27009KT 17/01 A3027 RMK A01 T01740008  RH  033%=      5-min Rain = 0
KBY1 161647Z 26006KT 17/01 A3027 RMK A01 T01730008  RH  033%=      5-min Rain = 0
KBY1 161648Z 27006KT 17/01 A3027 RMK A01 T01720006  RH  032%=      5-min Rain = 0
KBY1 161649Z 25006KT 17/00 A3027 RMK A01 T01730004  RH  032%=      5-min Rain = 0
KBY1 161650Z 26007KT 17/01 A3027 RMK A01 T01730012  RH  034%=      5-min Rain = 0
KBY1 161651Z 24006KT 18/01 A3027 RMK A01 T01760012  RH  033%=      5-min Rain = 0
KBY1 161652Z 24009KT 18/00 A3026 RMK A01 T01770001  RH  031%=      5-min Rain = 0
KBY1 161653Z 24011KT 18/M00 A3026 RMK A01 T01781002  RH  030%=      5-min Rain = 0
KBY1 161654Z 24009KT 18/M00 A3026 RMK A01 T01771003  RH  030%=      5-min Rain = 0
KBY1 161655Z 23008KT 18/00 A3026 RMK A01 T01780001  RH  030%=      5-min Rain = 0
KBY1 161656Z 24009KT 18/M00 A3026 RMK A01 T01801001  RH  029%=      5-min Rain = 0
KBY1 161657Z 27009KT 18/M00 A3026 RMK A01 T01811001  RH  029%=      5-min Rain = 0
KBY1 161658Z 26009KT 18/M00 A3026 RMK A01 T01811003  RH  029%=      5-min Rain = 0
KBY1 161659Z 25010KT 18/M00 A3026 RMK A01 T01801003  RH  029%=      5-min Rain = 0
KBY1 161700Z 26007KT 18/M01 A3026 RMK A01 T01781005  RH  029%=      5-min Rain = 0
KBY1 161701Z 23008KT 18/M00 A3026 RMK A01 T01781001  RH  030%=      5-min Rain = 0
KBY1 161702Z 24007KT 18/00 A3026 RMK A01 T01810002  RH  030%=      5-min Rain = 0
KBY1 161703Z 23010KT 18/M00 A3026 RMK A01 T01841001  RH  029%=      5-min Rain = 0
KBY1 161704Z 24009KT 18/M00 A3026 RMK A01 T01841002  RH  028%=      5-min Rain = 0
KBY1 161705Z 24008KT 19/M00 A3026 RMK A01 T01861001  RH  028%=      5-min Rain = 0
KBY1 161706Z 26009KT 19/M00 A3026 RMK A01 T01871001  RH  028%=      5-min Rain = 0
KBY1 161707Z 27008KT 19/M00 A3026 RMK A01 T01881003  RH  028%=      5-min Rain = 0
KBY1 161708Z 26009KT 19/M00 A3026 RMK A01 T01871002  RH  028%=      5-min Rain = 0
KBY1 161709Z 27009KT 19/M01 A3026 RMK A01 T01861005  RH  028%=      5-min Rain = 0
KBY1 161710Z 26011KT 19/M00 A3026 RMK A01 T01851004  RH  028%=      5-min Rain = 0
KBY1 161711Z 26009KT 19/M00 A3026 RMK A01 T01851004  RH  028%=      5-min Rain = 0
KBY1 161712Z 25010KT 19/M00 A3026 RMK A01 T01851003  RH  028%=      5-min Rain = 0
KBY1 161713Z 27009G14KT 19/M00 A3026 RMK A01 T01861004  RH  028%=      5-min Rain = 0
KBY1 161714Z 24010KT 19/M00 A3025 RMK A01 T01861004  RH  028%=      5-min Rain = 0
KBY1 161715Z 25011KT 19/M01 A3025 RMK A01 T01871006  RH  027%=      5-min Rain = 0
KBY1 161716Z 25011KT 19/M01 A3025 RMK A01 T01861005  RH  027%=      5-min Rain = 0
KBY1 161717Z 25009KT 19/M01 A3025 RMK A01 T01861007  RH  027%=      5-min Rain = 0
KBY1 161718Z 27008KT 19/M01 A3025 RMK A01 T01851006  RH  028%=      5-min Rain = 0
KBY1 161719Z 27008KT 19/M00 A3025 RMK A01 T01851004  RH  028%=      5-min Rain = 0
KBY1 161720Z 27008KT 19/M01 A3025 RMK A01 T01851005  RH  028%=      5-min Rain = 0
KBY1 161721Z 23006KT 19/M00 A3025 RMK A01 T01871001  RH  028%=      5-min Rain = 0
KBY1 161722Z 23009G14KT 19/00 A3025 RMK A01 T01910001  RH  028%=      5-min Rain = 0
KBY1 161723Z 24009KT 19/M00 A3025 RMK A01 T01941001  RH  027%=      5-min Rain = 0
KBY1 161724Z 24008KT 19/M00 A3025 RMK A01 T01921004  RH  027%=      5-min Rain = 0
KBY1 161725Z 25009KT 19/M00 A3025 RMK A01 T01921001  RH  027%=      5-min Rain = 0
KBY1 161726Z 28006KT 19/M00 A3025 RMK A01 T01931002  RH  027%=      5-min Rain = 0
KBY1 161727Z 25008KT 19/M00 A3025 RMK A01 T01931002  RH  027%=      5-min Rain = 0
KBY1 161728Z 26011KT 19/M00 A3025 RMK A01 T01941001  RH  027%=      5-min Rain = 0
KBY1 161729Z 24008KT 20/M00 A3025 RMK A01 T01961002  RH  026%=      5-min Rain = 0
KBY1 161730Z 24009KT 20/M00 A3025 RMK A01 T01961003  RH  026%=      5-min Rain = 0
KBY1 161731Z 26007KT 20/M00 A3025 RMK A01 T01961003  RH  026%=      5-min Rain = 0
KBY1 161732Z 26006KT 20/00 A3025 RMK A01 T019600-0  RH  027%=      5-min Rain = 0
KBY1 161733Z 24008KT 20/M00 A3025 RMK A01 T01981001  RH  026%=      5-min Rain = 0
KBY1 161734Z 24009KT 20/M00 A3025 RMK A01 T01981003  RH  026%=      5-min Rain = 0
KBY1 161735Z 23009KT 20/M00 A3025 RMK A01 T01981003  RH  026%=      5-min Rain = 0
KBY1 161736Z 23009KT 20/M00 A3024 RMK A01 T01991003  RH  026%=      5-min Rain = 0
KBY1 161737Z 22009KT 20/M00 A3024 RMK A01 T02001004  RH  025%=      5-min Rain = 0
KBY1 161738Z 25010KT 20/M01 A3024 RMK A01 T02001007  RH  025%=      5-min Rain = 0
KBY1 161739Z 24009KT 20/M01 A3024 RMK A01 T01991007  RH  025%=      5-min Rain = 0
KBY1 161740Z 24008KT 20/M01 A3024 RMK A01 T01991008  RH  025%=      5-min Rain = 0
KBY1 161741Z 23008KT 20/M01 A3024 RMK A01 T01991007  RH  025%=      5-min Rain = 0
KBY1 161742Z 24009KT 20/M00 A3024 RMK A01 T02001004  RH  025%=      5-min Rain = 0
KBY1 161743Z 24008KT 20/M01 A3024 RMK A01 T02011007  RH  025%=      5-min Rain = 0
KBY1 161744Z 23008KT 20/M01 A3024 RMK A01 T02001005  RH  025%=      5-min Rain = 0
KBY1 161745Z 26010KT 20/M00 A3024 RMK A01 T02011003  RH  025%=      5-min Rain = 0
KBY1 161746Z 26008KT 20/M01 A3024 RMK A01 T02021005  RH  025%=      5-min Rain = 0
KBY1 161747Z 24009KT 20/M01 A3024 RMK A01 T02011005  RH  025%=      5-min Rain = 0
KBY1 161748Z 24006KT 20/M00 A3024 RMK A01 T02001004  RH  025%=      5-min Rain = 0
KBY1 161749Z 24008KT 20/M00 A3024 RMK A01 T02021003  RH  025%=      5-min Rain = 0
KBY1 161750Z 22008KT 20/M01 A3024 RMK A01 T02031008  RH  024%=      5-min Rain = 0
KBY1 161751Z 25007KT 21/M01 A3024 RMK A01 T02051005  RH  025%=      5-min Rain = 0
KBY1 161752Z 26012KT 21/M01 A3024 RMK A01 T02071005  RH  024%=      5-min Rain = 0
KBY1 161753Z 24012KT 21/M01 A3024 RMK A01 T02071012  RH  023%=      5-min Rain = 0
KBY1 161754Z 25009KT 21/M01 A3024 RMK A01 T02061010  RH  024%=      5-min Rain = 0
KBY1 161755Z 24009KT 21/M01 A3024 RMK A01 T02061012  RH  023%=      5-min Rain = 0
KBY1 161756Z 22007KT 21/M01 A3024 RMK A01 T02051012  RH  023%=      5-min Rain = 0
KBY1 161757Z 22006KT 20/M01 A3024 RMK A01 T02041013  RH  023%=      5-min Rain = 0
KBY1 161758Z 24010KT 20/M01 A3023 RMK A01 T02041011  RH  024%=      5-min Rain = 0
KBY1 161759Z 25010KT 20/M02 A3023 RMK A01 T02041015  RH  023%=      5-min Rain = 0
KBY1 161800Z 26009KT 21/M01 A3023 RMK A01 T02071008  RH  024%=      5-min Rain = 0
KBY1 161801Z 26012G17KT 21/M01 A3023 RMK A01 T02101010  RH  023%=      5-min Rain = 0
KBY1 161802Z 26013KT 21/M01 A3023 RMK A01 T02101013  RH  022%=      5-min Rain = 0
KBY1 161803Z 24008KT 21/M01 A3023 RMK A01 T02101011  RH  023%=      5-min Rain = 0
KBY1 161804Z 25010KT 21/M01 A3023 RMK A01 T02111013  RH  022%=      5-min Rain = 0
KBY1 161805Z 23013G18KT 21/M01 A3023 RMK A01 T02101013  RH  022%=      5-min Rain = 0
KBY1 161806Z 24013KT 21/M01 A3023 RMK A01 T02101014  RH  022%=      5-min Rain = 0
KBY1 161807Z 23012KT 21/M01 A3023 RMK A01 T02121014  RH  022%=      5-min Rain = 0
KBY1 161808Z 23010KT 21/M02 A3023 RMK A01 T02121015  RH  022%=      5-min Rain = 0
KBY1 161809Z 24012KT 21/M01 A3023 RMK A01 T02111013  RH  022%=      5-min Rain = 0
KBY1 161810Z 25011KT 21/M01 A3023 RMK A01 T02101014  RH  022%=      5-min Rain = 0
KBY1 161811Z 24008KT 21/M01 A3023 RMK A01 T02091013  RH  023%=      5-min Rain = 0
KBY1 161812Z 24007KT 21/M01 A3023 RMK A01 T02081011  RH  023%=      5-min Rain = 0
KBY1 161813Z 24006KT 21/M01 A3023 RMK A01 T02091013  RH  023%=      5-min Rain = 0
KBY1 161814Z 27008KT 21/M01 A3023 RMK A01 T02091011  RH  023%=      5-min Rain = 0
KBY1 161815Z 27007G12KT 21/M01 A3023 RMK A01 T02101009  RH  023%=      5-min Rain = 0
KBY1 161816Z 26007G12KT 21/M01 A3023 RMK A01 T02121010  RH  023%=      5-min Rain = 0
KBY1 161817Z 25006KT 21/M01 A3023 RMK A01 T02111012  RH  022%=      5-min Rain = 0
KBY1 161818Z 24009KT 21/M01 A3023 RMK A01 T02111011  RH  023%=      5-min Rain = 0
KBY1 161819Z 26010KT 21/M01 A3022 RMK A01 T02131009  RH  023%=      5-min Rain = 0
KBY1 161820Z 26008KT 21/M01 A3022 RMK A01 T02131010  RH  022%=      5-min Rain = 0
KBY1 161821Z 25009KT 21/M01 A3022 RMK A01 T02141009  RH  022%=      5-min Rain = 0
KBY1 161822Z 26009KT 21/M01 A3022 RMK A01 T02141010  RH  022%=      5-min Rain = 0
KBY1 161823Z 25008KT 21/M01 A3022 RMK A01 T02131012  RH  022%=      5-min Rain = 0
KBY1 161824Z 26004KT 21/M01 A3022 RMK A01 T02121014  RH  022%=      5-min Rain = 0
KBY1 161825Z 26004KT 21/M01 A3022 RMK A01 T02111011  RH  023%=      5-min Rain = 0
KBY1 161826Z 26009KT 21/M01 A3022 RMK A01 T02121012  RH  022%=      5-min Rain = 0
KBY1 161827Z 23009KT 21/M01 A3022 RMK A01 T02131009  RH  023%=      5-min Rain = 0
KBY1 161828Z 22008KT 22/M01 A3022 RMK A01 T02161012  RH  022%=      5-min Rain = 0
KBY1 161829Z 21008KT 22/M02 A3022 RMK A01 T02171016  RH  021%=      5-min Rain = 0
KBY1 161830Z 22009KT 22/M02 A3022 RMK A01 T02171019  RH  020%=      5-min Rain = 0
KBY1 161831Z 23007KT 22/M01 A3022 RMK A01 T02191013  RH  021%=      5-min Rain = 0
KBY1 161832Z 24008KT 22/M01 A3022 RMK A01 T02241009  RH  021%=      5-min Rain = 0
KBY1 161833Z 24009G14KT 22/M01 A3021 RMK A01 T02241012  RH  021%=      5-min Rain = 0
KBY1 161834Z 23012KT 22/M02 A3021 RMK A01 T02221016  RH  020%=      5-min Rain = 0
KBY1 161835Z 21011KT 22/M02 A3021 RMK A01 T02221016  RH  020%=      5-min Rain = 0
KBY1 161836Z 20012KT 22/M02 A3021 RMK A01 T02231020  RH  020%=      5-min Rain = 0
KBY1 161837Z 23012G17KT 22/M02 A3021 RMK A01 T02241018  RH  020%=      5-min Rain = 0
KBY1 161838Z 24011G16KT 23/M02 A3021 RMK A01 T02251016  RH  020%=      5-min Rain = 0
KBY1 161839Z 24014KT 23/M02 A3021 RMK A01 T02261019  RH  019%=      5-min Rain = 0
KBY1 161840Z 23008G13KT 23/M02 A3021 RMK A01 T02251018  RH  020%=      5-min Rain = 0
KBY1 161841Z 23009G14KT 23/M02 A3021 RMK A01 T02271019  RH  019%=      5-min Rain = 0
KBY1 161842Z 23012G18KT 23/M02 A3021 RMK A01 T02261021  RH  019%=      5-min Rain = 0
KBY1 161843Z 21015KT 23/M02 A3021 RMK A01 T02271024  RH  019%=      5-min Rain = 0
KBY1 161844Z 22018KT 23/M03 A3021 RMK A01 T02271027  RH  018%=      5-min Rain = 0
KBY1 161845Z 22016KT 23/M03 A3021 RMK A01 T02251027  RH  018%=      5-min Rain = 0
KBY1 161846Z 21015KT 22/M03 A302 RMK A01 T02241026  RH  019%=      5-min Rain = 0
KBY1 161847Z 21013KT 22/M03 A302 RMK A01 T02241028  RH  018%=      5-min Rain = 0
KBY1 161848Z 23012KT 23/M02 A302 RMK A01 T02261023  RH  019%=      5-min Rain = 0
KBY1 161849Z 23012KT 23/M03 A302 RMK A01 T02261026  RH  018%=      5-min Rain = 0
KBY1 161850Z 23011KT 22/M03 A302 RMK A01 T02241025  RH  019%=      5-min Rain = 0
KBY1 161851Z 23014KT 23/M02 A302 RMK A01 T02251024  RH  019%=      5-min Rain = 0
KBY1 161852Z 23009G14KT 22/M03 A302 RMK A01 T02241030  RH  018%=      5-min Rain = 0
KBY1 161853Z 22010G15KT 22/M02 A302 RMK A01 T02241021  RH  019%=      5-min Rain = 0
KBY1 161854Z 24012G18KT 23/M02 A302 RMK A01 T02281021  RH  019%=      5-min Rain = 0
KBY1 161855Z 24014KT 23/M02 A302 RMK A01 T02281024  RH  018%=      5-min Rain = 0
KBY1 161856Z 24012KT 23/M03 A302 RMK A01 T02271026  RH  018%=      5-min Rain = 0
KBY1 161857Z 24010KT 23/M02 A302 RMK A01 T02261023  RH  019%=      5-min Rain = 0
KBY1 161858Z 24011KT 23/M03 A302 RMK A01 T02271027  RH  018%=      5-min Rain = 0
KBY1 161859Z 22010G15KT 23/M03 A3019 RMK A01 T02271025  RH  018%=      5-min Rain = 0
KBY1 161900Z 23017KT 23/M02 A3019 RMK A01 T02291024  RH  018%=      5-min Rain = 0
KBY1 161901Z 22010G15KT 23/M03 A3019 RMK A01 T02301025  RH  018%=      5-min Rain = 0
KBY1 161902Z 23014G19KT 23/M02 A3019 RMK A01 T02321024  RH  018%=      5-min Rain = 0
KBY1 161903Z 23014KT 23/M03 A3019 RMK A01 T02311027  RH  018%=      5-min Rain = 0
KBY1 161904Z 23013G18KT 23/M03 A3019 RMK A01 T02301027  RH  018%=      5-min Rain = 0
KBY1 161905Z 23010KT 23/M03 A3019 RMK A01 T02301027  RH  018%=      5-min Rain = 0
KBY1 161906Z 23011KT 23/M03 A3019 RMK A01 T02311025  RH  018%=      5-min Rain = 0
KBY1 161907Z 23012KT 23/M02 A3019 RMK A01 T02331023  RH  018%=      5-min Rain = 0
KBY1 161908Z 24009KT 23/M03 A3019 RMK A01 T02331027  RH  017%=      5-min Rain = 0
KBY1 161909Z 25010KT 23/M03 A3019 RMK A01 T02321025  RH  018%=      5-min Rain = 0
KBY1 161910Z 23012KT 23/M02 A3018 RMK A01 T02341020  RH  018%=      5-min Rain = 0
KBY1 161911Z 23015KT 24/M02 A3018 RMK A01 T02361024  RH  018%=      5-min Rain = 0
KBY1 161912Z 21013KT 24/M02 A3018 RMK A01 T02351023  RH  018%=      5-min Rain = 0
KBY1 161913Z 22012KT 24/M02 A3018 RMK A01 T02351022  RH  018%=      5-min Rain = 0
KBY1 161914Z 23014G21KT 24/M02 A3018 RMK A01 T02371022  RH  018%=      5-min Rain = 0
KBY1 161915Z 23011KT 24/M02 A3018 RMK A01 T02351021  RH  018%=      5-min Rain = 0
KBY1 161916Z 24011KT 23/M02 A3018 RMK A01 T02341022  RH  018%=      5-min Rain = 0
KBY1 161917Z 24011KT 23/M02 A3018 RMK A01 T02321024  RH  018%=      5-min Rain = 0
KBY1 161918Z 23011KT 23/M02 A3018 RMK A01 T02311022  RH  018%=      5-min Rain = 0
KBY1 161919Z 22014KT 23/M02 A3018 RMK A01 T02321023  RH  018%=      5-min Rain = 0
KBY1 161920Z 21013KT 23/M03 A3018 RMK A01 T02321028  RH  017%=      5-min Rain = 0
KBY1 161921Z 22015G21KT 23/M03 A3018 RMK A01 T02311027  RH  018%=      5-min Rain = 0
KBY1 161922Z 23012KT 23/M03 A3018 RMK A01 T02291025  RH  018%=      5-min Rain = 0
KBY1 161923Z 23014KT 23/M02 A3018 RMK A01 T02301023  RH  018%=      5-min Rain = 0
KBY1 161924Z 22013KT 23/M02 A3018 RMK A01 T02301024  RH  018%=      5-min Rain = 0
KBY1 161925Z 24014KT 23/M02 A3018 RMK A01 T02301023  RH  018%=      5-min Rain = 0
KBY1 161926Z 24011G16KT 23/M03 A3018 RMK A01 T02311025  RH  018%=      5-min Rain = 0
KBY1 161927Z 23010KT 23/M02 A3018 RMK A01 T02301024  RH  018%=      5-min Rain = 0
KBY1 161928Z 23012G19KT 23/M03 A3018 RMK A01 T02311025  RH  018%=      5-min Rain = 0
KBY1 161929Z 25013KT 23/M02 A3017 RMK A01 T02331024  RH  018%=      5-min Rain = 0
KBY1 161930Z 25013KT 23/M02 A3017 RMK A01 T02341023  RH  018%=      5-min Rain = 0
KBY1 161931Z 24013G18KT 23/M03 A3017 RMK A01 T02341028  RH  017%=      5-min Rain = 0
KBY1 161932Z 24014KT 23/M03 A3017 RMK A01 T02341025  RH  018%=      5-min Rain = 0
KBY1 161933Z 24015KT 24/M02 A3017 RMK A01 T02361023  RH  018%=      5-min Rain = 0
KBY1 161934Z 23015KT 24/M02 A3017 RMK A01 T02371024  RH  017%=      5-min Rain = 0
KBY1 161935Z 23012KT 24/M02 A3017 RMK A01 T02361022  RH  018%=      5-min Rain = 0
KBY1 161936Z 22011KT 24/M02 A3017 RMK A01 T02361024  RH  018%=      5-min Rain = 0
KBY1 161937Z 22014KT 24/M02 A3017 RMK A01 T02361024  RH  018%=      5-min Rain = 0
KBY1 161938Z 22015KT 24/M02 A3017 RMK A01 T02361024  RH  018%=      5-min Rain = 0
KBY1 161939Z 23014G19KT 24/M03 A3017 RMK A01 T02361025  RH  017%=      5-min Rain = 0
KBY1 161940Z 23013KT 23/M03 A3017 RMK A01 T02341025  RH  018%=      5-min Rain = 0
KBY1 161941Z 24013KT 24/M02 A3017 RMK A01 T02351023  RH  018%=      5-min Rain = 0
KBY1 161942Z 24015KT 24/M02 A3016 RMK A01 T02351024  RH  018%=      5-min Rain = 0
KBY1 161943Z 24012G17KT 24/M02 A3016 RMK A01 T02351024  RH  018%=      5-min Rain = 0
KBY1 161944Z 21010KT 24/M02 A3016 RMK A01 T02351022  RH  018%=      5-min Rain = 0
KBY1 161945Z 21010KT 24/M02 A3016 RMK A01 T02361024  RH  018%=      5-min Rain = 0
KBY1 161946Z 22012G17KT 24/M02 A3016 RMK A01 T02361023  RH  018%=      5-min Rain = 0
KBY1 161947Z 21011KT 24/M03 A3016 RMK A01 T02361026  RH  017%=      5-min Rain = 0
KBY1 161948Z 21012KT 24/M02 A3016 RMK A01 T02351024  RH  018%=      5-min Rain = 0
KBY1 161949Z 20013KT 24/M02 A3016 RMK A01 T02371023  RH  018%=      5-min Rain = 0
KBY1 161950Z 20012KT 24/M03 A3016 RMK A01 T02371026  RH  017%=      5-min Rain = 0
KBY1 161951Z 20012KT 24/M02 A3016 RMK A01 T02361023  RH  018%=      5-min Rain = 0
KBY1 161952Z 22008KT 24/M02 A3016 RMK A01 T02371019  RH  018%=      5-min Rain = 0
KBY1 161953Z 24012KT 24/M01 A3016 RMK A01 T02421013  RH  018%=      5-min Rain = 0
KBY1 161954Z 25010KT 24/M02 A3016 RMK A01 T02441016  RH  018%=      5-min Rain = 0
KBY1 161955Z 24013G19KT 24/M02 A3016 RMK A01 T02431020  RH  017%=      5-min Rain = 0
KBY1 161956Z 24012G17KT 24/M02 A3016 RMK A01 T02391024  RH  017%=      5-min Rain = 0
KBY1 161957Z 23010KT 24/M02 A3016 RMK A01 T02371020  RH  018%=      5-min Rain = 0
KBY1 161958Z 22008KT 24/M02 A3015 RMK A01 T02381018  RH  018%=      5-min Rain = 0
KBY1 161959Z 22012KT 24/M02 A3015 RMK A01 T02401021  RH  018%=      5-min Rain = 0
KBY1 162000Z 22012G17KT 24/M02 A3015 RMK A01 T02381021  RH  018%=      5-min Rain = 0
KBY1 162001Z 22009KT 24/M02 A3015 RMK A01 T02381018  RH  018%=      5-min Rain = 0
KBY1 162002Z 21014KT 24/M02 A3015 RMK A01 T02411017  RH  018%=      5-min Rain = 0
KBY1 162003Z 21012KT 24/M02 A3015 RMK A01 T02421021  RH  017%=      5-min Rain = 0
KBY1 162004Z 22012KT 24/M02 A3015 RMK A01 T02401022  RH  017%=      5-min Rain = 0
KBY1 162005Z 21014KT 24/M02 A3015 RMK A01 T02391020  RH  018%=      5-min Rain = 0
KBY1 162006Z 22013KT 24/M02 A3015 RMK A01 T02391023  RH  017%=      5-min Rain = 0
KBY1 162007Z 21010KT 24/M02 A3015 RMK A01 T02371022  RH  018%=      5-min Rain = 0
KBY1 162008Z 21008KT 24/M02 A3015 RMK A01 T02371020  RH  018%=      5-min Rain = 0
KBY1 162009Z 21014G22KT 24/M02 A3015 RMK A01 T02401018  RH  018%=      5-min Rain = 0
KBY1 162010Z 22016KT 24/M02 A3015 RMK A01 T02421019  RH  018%=      5-min Rain = 0
KBY1 162011Z 22012KT 24/M02 A3015 RMK A01 T02401019  RH  018%=      5-min Rain = 0
KBY1 162012Z 24011KT 24/M02 A3015 RMK A01 T02401017  RH  018%=      5-min Rain = 0
KBY1 162013Z 23010KT 24/M02 A3015 RMK A01 T02411018  RH  018%=      5-min Rain = 0
KBY1 162014Z 22013KT 24/M02 A3014 RMK A01 T02411020  RH  018%=      5-min Rain = 0
KBY1 162015Z 23012KT 24/M02 A3014 RMK A01 T02401018  RH  018%=      5-min Rain = 0
KBY1 162016Z 23013KT 24/M02 A3014 RMK A01 T02411019  RH  018%=      5-min Rain = 0
KBY1 162017Z 23011KT 24/M02 A3014 RMK A01 T02411018  RH  018%=      5-min Rain = 0
KBY1 162018Z 23015KT 24/M02 A3014 RMK A01 T02411017  RH  018%=      5-min Rain = 0
KBY1 162019Z 22014KT 24/M02 A3014 RMK A01 T02421020  RH  017%=      5-min Rain = 0
KBY1 162020Z 23013KT 24/M02 A3014 RMK A01 T02401020  RH  018%=      5-min Rain = 0
KBY1 162021Z 23012KT 24/M02 A3014 RMK A01 T02391021  RH  018%=      5-min Rain = 0
KBY1 162022Z 22011KT 24/M02 A3014 RMK A01 T02381022  RH  018%=      5-min Rain = 0
KBY1 162023Z 23008KT 24/M02 A3014 RMK A01 T02371021  RH  018%=      5-min Rain = 0
KBY1 162024Z 21012G18KT 24/M02 A3014 RMK A01 T02381016  RH  018%=      5-min Rain = 0
KBY1 162025Z 22015KT 24/M02 A3014 RMK A01 T02431015  RH  018%=      5-min Rain = 0
KBY1 162026Z 22014G19KT 24/M01 A3014 RMK A01 T02441013  RH  018%=      5-min Rain = 0
KBY1 162027Z 23015KT 24/M02 A3014 RMK A01 T02441018  RH  018%=      5-min Rain = 0
KBY1 162028Z 22014KT 24/M02 A3014 RMK A01 T02411019  RH  018%=      5-min Rain = 0
KBY1 162029Z 21011KT 24/M02 A3014 RMK A01 T02391020  RH  018%=      5-min Rain = 0
KBY1 162030Z 21011KT 24/M02 A3014 RMK A01 T02401019  RH  018%=      5-min Rain = 0
KBY1 162031Z 22009KT 24/M02 A3014 RMK A01 T02411018  RH  018%=      5-min Rain = 0
KBY1 162032Z 22010KT 24/M02 A3014 RMK A01 T02421016  RH  018%=      5-min Rain = 0
KBY1 162033Z 23014G19KT 25/M01 A3014 RMK A01 T02451011  RH  018%=      5-min Rain = 0
KBY1 162034Z 23015KT 24/M02 A3014 RMK A01 T02441016  RH  018%=      5-min Rain = 0
KBY1 162035Z 23011KT 24/M02 A3014 RMK A01 T02421020  RH  017%=      5-min Rain = 0
KBY1 162036Z 22011G16KT 24/M02 A3013 RMK A01 T02391019  RH  018%=      5-min Rain = 0
KBY1 162037Z 24015KT 24/M02 A3013 RMK A01 T02411016  RH  018%=      5-min Rain = 0
KBY1 162038Z 24014KT 24/M02 A3013 RMK A01 T02421018  RH  018%=      5-min Rain = 0
KBY1 162039Z 23010KT 24/M02 A3013 RMK A01 T02411019  RH  018%=      5-min Rain = 0
KBY1 162040Z 24012KT 24/M02 A3013 RMK A01 T02411018  RH  018%=      5-min Rain = 0
KBY1 162041Z 21011KT 24/M01 A3013 RMK A01 T02431013  RH  018%=      5-min Rain = 0
KBY1 162042Z 21013KT 25/M01 A3013 RMK A01 T02461014  RH  018%=      5-min Rain = 0
KBY1 162043Z 22013KT 25/M02 A3013 RMK A01 T02481016  RH  017%=      5-min Rain = 0
KBY1 162044Z 22010KT 25/M02 A3013 RMK A01 T02461018  RH  017%=      5-min Rain = 0
KBY1 162045Z 23009KT 24/M02 A3013 RMK A01 T02441017  RH  018%=      5-min Rain = 0
KBY1 162046Z 20010G15KT 24/M01 A3013 RMK A01 T02441014  RH  018%=      5-min Rain = 0
KBY1 162047Z 21010KT 25/M02 A3013 RMK A01 T02461018  RH  017%=      5-min Rain = 0
KBY1 162048Z 22010KT 25/M02 A3013 RMK A01 T02451020  RH  017%=      5-min Rain = 0
KBY1 162049Z 21009KT 24/M02 A3013 RMK A01 T02431017  RH  018%=      5-min Rain = 0
KBY1 162050Z 22008KT 25/M01 A3013 RMK A01 T02461011  RH  018%=      5-min Rain = 0
KBY1 162051Z 23013KT 25/M01 A3013 RMK A01 T02501014  RH  017%=      5-min Rain = 0
KBY1 162052Z 23013KT 25/M02 A3013 RMK A01 T02481022  RH  017%=      5-min Rain = 0
KBY1 162053Z 23014KT 24/M02 A3013 RMK A01 T02431024  RH  017%=      5-min Rain = 0
KBY1 162054Z 22011KT 24/M02 A3013 RMK A01 T02421023  RH  017%=      5-min Rain = 0
KBY1 162055Z 22011KT 24/M02 A3013 RMK A01 T02421023  RH  017%=      5-min Rain = 0
KBY1 162056Z 23013G20KT 24/M02 A3013 RMK A01 T02431020  RH  017%=      5-min Rain = 0
KBY1 162057Z 23016KT 25/M02 A3013 RMK A01 T02451018  RH  017%=      5-min Rain = 0
KBY1 162058Z 23013KT 25/M02 A3013 RMK A01 T02451022  RH  017%=      5-min Rain = 0
KBY1 162059Z 21013KT 24/M02 A3013 RMK A01 T02441021  RH  017%=      5-min Rain = 0
KBY1 162100Z 20013KT 24/M02 A3013 RMK A01 T02441023  RH  017%=      5-min Rain = 0
KBY1 162101Z 21011KT 24/M02 A3013 RMK A01 T02441024  RH  017%=      5-min Rain = 0
KBY1 162102Z 22008KT 24/M02 A3013 RMK A01 T02431024  RH  017%=      5-min Rain = 0
KBY1 162103Z 25009KT 24/M02 A3012 RMK A01 T02421022  RH  017%=      5-min Rain = 0
KBY1 162104Z 20008KT 24/M02 A3012 RMK A01 T02431018  RH  018%=      5-min Rain = 0
KBY1 162105Z 21008KT 25/M02 A3012 RMK A01 T02461019  RH  017%=      5-min Rain = 0
KBY1 162106Z 22012G19KT 25/M02 A3012 RMK A01 T02491016  RH  017%=      5-min Rain = 0
KBY1 162107Z 23014KT 25/M02 A3012 RMK A01 T02491021  RH  017%=      5-min Rain = 0
KBY1 162108Z 22011KT 25/M02 A3012 RMK A01 T02461018  RH  017%=      5-min Rain = 0
KBY1 162109Z 22008KT 25/M02 A3012 RMK A01 T02461015  RH  018%=      5-min Rain = 0
KBY1 162110Z 22010KT 25/M02 A3012 RMK A01 T02491015  RH  017%=      5-min Rain = 0
KBY1 162111Z 22012G18KT 25/M02 A3012 RMK A01 T02501016  RH  017%=      5-min Rain = 0
KBY1 162112Z 23012KT 25/M02 A3012 RMK A01 T02491018  RH  017%=      5-min Rain = 0
KBY1 162113Z 24012G17KT 25/M02 A3012 RMK A01 T02471019  RH  017%=      5-min Rain = 0
KBY1 162114Z 22013KT 25/M02 A3012 RMK A01 T02461020  RH  017%=      5-min Rain = 0
KBY1 162115Z 23011KT 25/M02 A3012 RMK A01 T02451019  RH  017%=      5-min Rain = 0
KBY1 162116Z 23012KT 25/M02 A3012 RMK A01 T02451018  RH  017%=      5-min Rain = 0
KBY1 162117Z 21012KT 25/M02 A3012 RMK A01 T02461019  RH  017%=      5-min Rain = 0
KBY1 162118Z 21011KT 25/M02 A3012 RMK A01 T02461021  RH  017%=      5-min Rain = 0
KBY1 162119Z 20013G18KT 25/M02 A3012 RMK A01 T02461019  RH  017%=      5-min Rain = 0
KBY1 162120Z 23009KT 25/M02 A3012 RMK A01 T02461017  RH  017%=      5-min Rain = 0
KBY1 162121Z 20009KT 25/M01 A3012 RMK A01 T02481013  RH  018%=      5-min Rain = 0
KBY1 162122Z 22012KT 25/M02 A3012 RMK A01 T02501016  RH  017%=      5-min Rain = 0
KBY1 162123Z 23015KT 25/M02 A3012 RMK A01 T02501019  RH  017%=      5-min Rain = 0
KBY1 162124Z 23013KT 25/M02 A3012 RMK A01 T02461021  RH  017%=      5-min Rain = 0
KBY1 162125Z 22012KT 24/M02 A3012 RMK A01 T02441018  RH  017%=      5-min Rain = 0
KBY1 162126Z 23011G16KT 25/M02 A3012 RMK A01 T02451018  RH  017%=      5-min Rain = 0
KBY1 162127Z 23010KT 25/M02 A3012 RMK A01 T02461016  RH  018%=      5-min Rain = 0
KBY1 162128Z 24010G15KT 25/M02 A3012 RMK A01 T02461018  RH  017%=      5-min Rain = 0
KBY1 162129Z 24010KT 25/M02 A3012 RMK A01 T02471015  RH  018%=      5-min Rain = 0
KBY1 162130Z 23012KT 25/M02 A3012 RMK A01 T02471017  RH  017%=      5-min Rain = 0
KBY1 162131Z 23013KT 25/M02 A3012 RMK A01 T02471015  RH  018%=      5-min Rain = 0
KBY1 162132Z 21014KT 25/M02 A3012 RMK A01 T02471016  RH  017%=      5-min Rain = 0
KBY1 162133Z 21013KT 25/M02 A3012 RMK A01 T02471016  RH  017%=      5-min Rain = 0
KBY1 162134Z 22010KT 25/M02 A3012 RMK A01 T02471015  RH  018%=      5-min Rain = 0
KBY1 162135Z 22011KT 25/M02 A3012 RMK A01 T02481016  RH  017%=      5-min Rain = 0
KBY1 162136Z 22013KT 25/M02 A3012 RMK A01 T02471016  RH  017%=      5-min Rain = 0
KBY1 162137Z 22012KT 25/M02 A3012 RMK A01 T02471018  RH  017%=      5-min Rain = 0
KBY1 162138Z 21013KT 25/M02 A3012 RMK A01 T02451018  RH  017%=      5-min Rain = 0
KBY1 162139Z 21013KT 25/M02 A3012 RMK A01 T02451017  RH  018%=      5-min Rain = 0
KBY1 162140Z 21009KT 25/M02 A3012 RMK A01 T02461016  RH  018%=      5-min Rain = 0
KBY1 162141Z 21009KT 25/M01 A3012 RMK A01 T02481014  RH  018%=      5-min Rain = 0
KBY1 162142Z 19012KT 25/M02 A3012 RMK A01 T02491018  RH  017%=      5-min Rain = 0
KBY1 162143Z 19009KT 25/M02 A3012 RMK A01 T02471018  RH  017%=      5-min Rain = 0
KBY1 162144Z 19008KT 25/M02 A3012 RMK A01 T02461017  RH  017%=      5-min Rain = 0
KBY1 162145Z 20008KT 25/M02 A3012 RMK A01 T02461016  RH  018%=      5-min Rain = 0
KBY1 162146Z 21014G19KT 25/M01 A3011 RMK A01 T02481013  RH  018%=      5-min Rain = 0
KBY1 162147Z 23010G15KT 25/M01 A3011 RMK A01 T02501011  RH  018%=      5-min Rain = 0
KBY1 162148Z 23008KT 25/M01 A3012 RMK A01 T02511011  RH  018%=      5-min Rain = 0
KBY1 162149Z 23008KT 25/M01 A3011 RMK A01 T02511014  RH  017%=      5-min Rain = 0
KBY1 162150Z 22008KT 25/M01 A3011 RMK A01 T02501011  RH  018%=      5-min Rain = 0
KBY1 162151Z 23009KT 25/M01 A3011 RMK A01 T02501011  RH  018%=      5-min Rain = 0
KBY1 162152Z 24013KT 25/M01 A3011 RMK A01 T02511013  RH  018%=      5-min Rain = 0
KBY1 162153Z 24012KT 25/M01 A3011 RMK A01 T02481013  RH  018%=      5-min Rain = 0
KBY1 162154Z 22010KT 25/M01 A3011 RMK A01 T02481011  RH  018%=      5-min Rain = 0
KBY1 162155Z 21012KT 25/M01 A3011 RMK A01 T02481010  RH  018%=      5-min Rain = 0
KBY1 162156Z 21010KT 25/M01 A3011 RMK A01 T02491011  RH  018%=      5-min Rain = 0
KBY1 162157Z 19012KT 25/M01 A3011 RMK A01 T02481011  RH  018%=      5-min Rain = 0
KBY1 162158Z 21013KT 25/M01 A3011 RMK A01 T02481012  RH  018%=      5-min Rain = 0
KBY1 162159Z 22011G17KT 25/M01 A3011 RMK A01 T02471010  RH  018%=      5-min Rain = 0
KBY1 162200Z 22012G17KT 25/M01 A3011 RMK A01 T02471010  RH  018%=      5-min Rain = 0
KBY1 162201Z 22013KT 25/M01 A3011 RMK A01 T02471009  RH  018%=      5-min Rain = 0
KBY1 162202Z 22010KT 25/M01 A3011 RMK A01 T02471010  RH  018%=      5-min Rain = 0
KBY1 162203Z 23008KT 25/M01 A3011 RMK A01 T02471010  RH  018%=      5-min Rain = 0
KBY1 162204Z 21012G17KT 25/M01 A3011 RMK A01 T02491007  RH  018%=      5-min Rain = 0
KBY1 162205Z 21011KT 25/M01 A3011 RMK A01 T02491009  RH  018%=      5-min Rain = 0
KBY1 162206Z 22009KT 25/M01 A3011 RMK A01 T02491010  RH  018%=      5-min Rain = 0
KBY1 162207Z 22009KT 25/M01 A3011 RMK A01 T02481010  RH  018%=      5-min Rain = 0
KBY1 162208Z 23010KT 25/M01 A3011 RMK A01 T02481010  RH  018%=      5-min Rain = 0
KBY1 162209Z 21009KT 25/M01 A3011 RMK A01 T02471008  RH  019%=      5-min Rain = 0
KBY1 162210Z 22011KT 25/M01 A3011 RMK A01 T02481010  RH  018%=      5-min Rain = 0
KBY1 162211Z 21012KT 25/M01 A3011 RMK A01 T02481014  RH  018%=      5-min Rain = 0
KBY1 162212Z 21012KT 25/M01 A3011 RMK A01 T02481012  RH  018%=      5-min Rain = 0
KBY1 162213Z 20015KT 25/M02 A3011 RMK A01 T02481015  RH  017%=      5-min Rain = 0
KBY1 162214Z 21012KT 25/M02 A3011 RMK A01 T02471017  RH  017%=      5-min Rain = 0
KBY1 162215Z 21011KT 25/M02 A3011 RMK A01 T02461017  RH  017%=      5-min Rain = 0
KBY1 162216Z 21011KT 25/M02 A3011 RMK A01 T02461015  RH  018%=      5-min Rain = 0
KBY1 162217Z 21010KT 25/M02 A3011 RMK A01 T02461016  RH  018%=      5-min Rain = 0
KBY1 162218Z 22010G15KT 25/M01 A3011 RMK A01 T02471013  RH  018%=      5-min Rain = 0
KBY1 162219Z 22014KT 25/M02 A3011 RMK A01 T02481016  RH  017%=      5-min Rain = 0
KBY1 162220Z 22011G16KT 25/M02 A3011 RMK A01 T02471019  RH  017%=      5-min Rain = 0
KBY1 162221Z 22008KT 25/M02 A3011 RMK A01 T02461017  RH  017%=      5-min Rain = 0
KBY1 162222Z 21011KT 25/M02 A3011 RMK A01 T02471015  RH  018%=      5-min Rain = 0
KBY1 162223Z 21011KT 25/M02 A3011 RMK A01 T02481016  RH  017%=      5-min Rain = 0
KBY1 162224Z 20011KT 25/M02 A3011 RMK A01 T02481017  RH  017%=      5-min Rain = 0
KBY1 162225Z 21010KT 25/M02 A3011 RMK A01 T02471016  RH  018%=      5-min Rain = 0
KBY1 162226Z 20012KT 25/M01 A3011 RMK A01 T02481014  RH  018%=      5-min Rain = 0
KBY1 162227Z 20012KT 25/M02 A3011 RMK A01 T02481016  RH  017%=      5-min Rain = 0
KBY1 162228Z 21014G19KT 25/M02 A3011 RMK A01 T02471016  RH  017%=      5-min Rain = 0
KBY1 162229Z 21012KT 25/M02 A3011 RMK A01 T02461016  RH  018%=      5-min Rain = 0
KBY1 162230Z 20011KT 25/M01 A3011 RMK A01 T02461014  RH  018%=      5-min Rain = 0
KBY1 162231Z 20011KT 25/M01 A301 RMK A01 T02471014  RH  018%=      5-min Rain = 0
KBY1 162232Z 21008KT 25/M01 A301 RMK A01 T02471011  RH  018%=      5-min Rain = 0
KBY1 162233Z 21009KT 25/M01 A301 RMK A01 T02491010  RH  018%=      5-min Rain = 0
KBY1 162234Z 22009KT 25/M01 A301 RMK A01 T02501012  RH  018%=      5-min Rain = 0
KBY1 162235Z 22009KT 25/M01 A301 RMK A01 T02491012  RH  018%=      5-min Rain = 0
KBY1 162236Z 21011KT 25/M01 A301 RMK A01 T02481012  RH  018%=      5-min Rain = 0
KBY1 162237Z 20012KT 25/M01 A301 RMK A01 T02481010  RH  018%=      5-min Rain = 0
KBY1 162238Z 21010KT 25/M01 A301 RMK A01 T02471010  RH  018%=      5-min Rain = 0
KBY1 162239Z 20009KT 25/M01 A301 RMK A01 T02471009  RH  018%=      5-min Rain = 0
KBY1 162240Z 21008KT 25/M01 A301 RMK A01 T02471010  RH  018%=      5-min Rain = 0
KBY1 162241Z 20009KT 25/M01 A301 RMK A01 T02481010  RH  018%=      5-min Rain = 0
KBY1 162242Z 20010KT 25/M01 A301 RMK A01 T02481009  RH  018%=      5-min Rain = 0
KBY1 162243Z 19012G18KT 25/M01 A301 RMK A01 T02471010  RH  018%=      5-min Rain = 0
KBY1 162244Z 20013KT 25/M01 A301 RMK A01 T02461010  RH  018%=      5-min Rain = 0
KBY1 162245Z 20014KT 25/M01 A301 RMK A01 T02451011  RH  018%=      5-min Rain = 0
KBY1 162246Z 20012KT 24/M01 A301 RMK A01 T02431012  RH  018%=      5-min Rain = 0
KBY1 162247Z 20012KT 24/M01 A301 RMK A01 T02421011  RH  019%=      5-min Rain = 0
KBY1 162248Z 19012KT 24/M01 A301 RMK A01 T02421011  RH  019%=      5-min Rain = 0
KBY1 162249Z 21009KT 24/M01 A301 RMK A01 T02421009  RH  019%=      5-min Rain = 0
KBY1 162250Z 20010G15KT 24/M01 A301 RMK A01 T02431009  RH  019%=      5-min Rain = 0
KBY1 162251Z 20015KT 24/M01 A301 RMK A01 T02421011  RH  019%=      5-min Rain = 0
KBY1 162252Z 21011KT 24/M01 A301 RMK A01 T02421013  RH  018%=      5-min Rain = 0
KBY1 162253Z 21012KT 24/M01 A301 RMK A01 T02411011  RH  019%=      5-min Rain = 0
KBY1 162254Z 20012KT 24/M01 A301 RMK A01 T02411011  RH  019%=      5-min Rain = 0
KBY1 162255Z 20009KT 24/M01 A301 RMK A01 T02411009  RH  019%=      5-min Rain = 0
KBY1 162256Z 20012KT 24/M01 A301 RMK A01 T02411011  RH  019%=      5-min Rain = 0
KBY1 162257Z 21012KT 24/M01 A301 RMK A01 T02411012  RH  019%=      5-min Rain = 0
KBY1 162258Z 21011KT 24/M01 A301 RMK A01 T02411012  RH  019%=      5-min Rain = 0
KBY1 162259Z 21011KT 24/M01 A301 RMK A01 T02401013  RH  019%=      5-min Rain = 0
KBY1 162300Z 21011KT 24/M01 A301 RMK A01 T02401011  RH  019%=      5-min Rain = 0
KBY1 162301Z 20011KT 24/M01 A301 RMK A01 T02401012  RH  019%=      5-min Rain = 0
KBY1 162302Z 20011KT 24/M01 A301 RMK A01 T02401012  RH  019%=      5-min Rain = 0
KBY1 162303Z 20013KT 24/M01 A301 RMK A01 T02401014  RH  019%=      5-min Rain = 0
KBY1 162304Z 20011KT 24/M02 A301 RMK A01 T02391016  RH  018%=      5-min Rain = 0
KBY1 162305Z 20008KT 24/M01 A301 RMK A01 T02391014  RH  019%=      5-min Rain = 0
KBY1 162306Z 20010KT 24/M01 A301 RMK A01 T02381013  RH  019%=      5-min Rain = 0
KBY1 162307Z 20009KT 24/M01 A301 RMK A01 T02381012  RH  019%=      5-min Rain = 0
KBY1 162308Z 20010KT 24/M01 A301 RMK A01 T02381012  RH  019%=      5-min Rain = 0
KBY1 162309Z 20010KT 24/M01 A301 RMK A01 T02391011  RH  019%=      5-min Rain = 0
KBY1 162310Z 20010KT 24/M01 A301 RMK A01 T02381009  RH  019%=      5-min Rain = 0
KBY1 162311Z 20011KT 24/M01 A301 RMK A01 T02381010  RH  019%=      5-min Rain = 0
KBY1 162312Z 21014KT 24/M01 A301 RMK A01 T02381011  RH  019%=      5-min Rain = 0
KBY1 162313Z 20012KT 24/M01 A301 RMK A01 T02371012  RH  019%=      5-min Rain = 0
KBY1 162314Z 20012KT 24/M01 A301 RMK A01 T02361012  RH  019%=      5-min Rain = 0
KBY1 162315Z 20012KT 24/M01 A301 RMK A01 T02361013  RH  019%=      5-min Rain = 0
KBY1 162316Z 21011KT 24/M01 A3009 RMK A01 T02361013  RH  019%=      5-min Rain = 0
KBY1 162317Z 21011KT 24/M01 A3009 RMK A01 T02351013  RH  019%=      5-min Rain = 0
KBY1 162318Z 21011KT 24/M01 A3009 RMK A01 T02351012  RH  019%=      5-min Rain = 0
KBY1 162319Z 20009KT 24/M01 A3009 RMK A01 T02351010  RH  020%=      5-min Rain = 0
KBY1 162320Z 20011KT 24/M01 A3009 RMK A01 T02351010  RH  020%=      5-min Rain = 0
KBY1 162321Z 20009KT 24/M01 A3009 RMK A01 T02351010  RH  020%=      5-min Rain = 0
KBY1 162322Z 20009KT 23/M01 A3009 RMK A01 T02341008  RH  020%=      5-min Rain = 0
KBY1 162323Z 19008KT 23/M01 A3009 RMK A01 T02341008  RH  020%=      5-min Rain = 0
KBY1 162324Z 20008KT 23/M01 A3009 RMK A01 T02331006  RH  020%=      5-min Rain = 0
KBY1 162325Z 20008KT 23/M01 A3009 RMK A01 T02331006  RH  020%=      5-min Rain = 0
KBY1 162326Z 20008KT 23/M01 A3009 RMK A01 T02321008  RH  020%=      5-min Rain = 0
KBY1 162327Z 20010KT 23/M01 A3009 RMK A01 T02311008  RH  020%=      5-min Rain = 0
KBY1 162328Z 20010KT 23/M01 A3009 RMK A01 T02311009  RH  020%=      5-min Rain = 0
KBY1 162329Z 19008KT 23/M01 A3009 RMK A01 T02311010  RH  020%=      5-min Rain = 0
KBY1 162330Z 20009KT 23/M01 A3009 RMK A01 T02301009  RH  020%=      5-min Rain = 0
KBY1 162331Z 20012KT 23/M01 A3009 RMK A01 T02301010  RH  020%=      5-min Rain = 0
KBY1 162332Z 20012G18KT 23/M01 A3009 RMK A01 T02291011  RH  020%=      5-min Rain = 0
KBY1 162333Z 20012KT 23/M01 A3009 RMK A01 T02291012  RH  020%=      5-min Rain = 0
KBY1 162334Z 20011KT 23/M01 A3009 RMK A01 T02291010  RH  020%=      5-min Rain = 0
KBY1 162335Z 21011KT 23/M01 A3009 RMK A01 T02281010  RH  020%=      5-min Rain = 0
KBY1 162336Z 21009KT 23/M01 A3009 RMK A01 T02271011  RH  020%=      5-min Rain = 0
KBY1 162337Z 20009KT 23/M01 A3009 RMK A01 T02271010  RH  021%=      5-min Rain = 0
KBY1 162338Z 20010KT 23/M01 A3009 RMK A01 T02261010  RH  021%=      5-min Rain = 0
KBY1 162339Z 21010KT 23/M01 A3009 RMK A01 T02261010  RH  021%=      5-min Rain = 0
KBY1 162340Z 20010KT 23/M01 A3009 RMK A01 T02251011  RH  021%=      5-min Rain = 0
KBY1 162341Z 20008KT 23/M01 A3009 RMK A01 T02251012  RH  021%=      5-min Rain = 0
KBY1 162342Z 20009KT 22/M01 A3009 RMK A01 T02241011  RH  021%=      5-min Rain = 0
KBY1 162343Z 20008KT 22/M01 A3009 RMK A01 T02231011  RH  021%=      5-min Rain = 0
KBY1 162344Z 20009KT 22/M01 A3009 RMK A01 T02221009  RH  021%=      5-min Rain = 0
KBY1 162345Z 19008KT 22/M01 A3009 RMK A01 T02221009  RH  022%=      5-min Rain = 0
KBY1 162346Z 20007KT 22/M01 A3009 RMK A01 T02211008  RH  022%=      5-min Rain = 0
KBY1 162347Z 20007KT 22/M01 A3009 RMK A01 T02201008  RH  022%=      5-min Rain = 0
KBY1 162348Z 20006KT 22/M01 A3009 RMK A01 T02191008  RH  022%=      5-min Rain = 0
KBY1 162349Z 20008KT 22/M01 A3009 RMK A01 T02181008  RH  022%=      5-min Rain = 0
KBY1 162350Z 20007KT 22/M01 A3009 RMK A01 T02171009  RH  022%=      5-min Rain = 0
KBY1 162351Z 19007KT 22/M01 A3009 RMK A01 T02171009  RH  022%=      5-min Rain = 0
KBY1 162352Z 20006KT 22/M01 A3009 RMK A01 T02161009  RH  022%=      5-min Rain = 0
KBY1 162353Z 20007KT 22/M01 A3009 RMK A01 T02151009  RH  022%=      5-min Rain = 0
KBY1 162354Z 20007KT 21/M01 A3009 RMK A01 T02141008  RH  023%=      5-min Rain = 0
KBY1 162355Z 19007KT 21/M01 A3009 RMK A01 T02131008  RH  023%=      5-min Rain = 0
KBY1 162356Z 20006KT 21/M01 A3009 RMK A01 T02121008  RH  023%=      5-min Rain = 0
KBY1 162357Z 20006KT 21/M01 A3009 RMK A01 T02101008  RH  023%=      5-min Rain = 0
KBY1 162358Z 20007KT 21/M01 A3009 RMK A01 T02091008  RH  023%=      5-min Rain = 0
KBY1 162359Z 19006KT 21/M01 A3009 RMK A01 T02081007  RH  024%=      5-min Rain = 0
KBY1 170000Z 19006KT 21/M01 A3009 RMK A01 T02061007  RH  024%=      5-min Rain = 0
KBY1 170001Z 19005KT 20/M01 A3009 RMK A01 T02041007  RH  024%=      5-min Rain = 0
KBY1 170002Z 20005KT 20/M01 A3009 RMK A01 T02031007  RH  024%=      5-min Rain = 0
KBY1 170003Z 19006KT 20/M01 A3009 RMK A01 T02021007  RH  025%=      5-min Rain = 0
KBY1 170004Z 20005KT 20/M01 A3009 RMK A01 T02021007  RH  025%=      5-min Rain = 0
KBY1 170005Z 20006KT 20/M01 A3009 RMK A01 T02011007  RH  025%=      5-min Rain = 0
KBY1 170006Z 19006KT 20/M01 A3009 RMK A01 T02001007  RH  025%=      5-min Rain = 0
KBY1 170007Z 19006KT 20/M01 A3009 RMK A01 T01991007  RH  025%=      5-min Rain = 0
KBY1 170008Z 19005KT 20/M01 A3009 RMK A01 T01981007  RH  025%=      5-min Rain = 0
KBY1 170009Z 19006KT 20/M01 A3009 RMK A01 T01981006  RH  025%=      5-min Rain = 0
KBY1 170010Z 20006KT 20/M01 A3009 RMK A01 T01971006  RH  025%=      5-min Rain = 0
KBY1 170011Z 19006KT 20/M01 A3009 RMK A01 T01961006  RH  026%=      5-min Rain = 0
KBY1 170012Z 20006KT 20/M01 A3009 RMK A01 T01951005  RH  026%=      5-min Rain = 0
KBY1 170013Z 19006KT 19/M01 A3009 RMK A01 T01941005  RH  026%=      5-min Rain = 0
KBY1 170014Z 19007KT 19/M01 A3009 RMK A01 T01931005  RH  026%=      5-min Rain = 0
KBY1 170015Z 20006KT 19/M01 A3009 RMK A01 T01921006  RH  026%=      5-min Rain = 0
KBY1 170016Z 19006KT 19/M01 A3009 RMK A01 T01921005  RH  026%=      5-min Rain = 0
KBY1 170017Z 20006KT 19/M01 A3009 RMK A01 T01911005  RH  027%=      5-min Rain = 0
KBY1 170018Z 20006KT 19/M01 A3009 RMK A01 T01911006  RH  027%=      5-min Rain = 0
KBY1 170019Z 19006KT 19/M01 A3009 RMK A01 T01901005  RH  027%=      5-min Rain = 0
KBY1 170020Z 19006KT 19/M01 A3009 RMK A01 T01891006  RH  027%=      5-min Rain = 0
KBY1 170021Z 19005KT 19/M01 A3009 RMK A01 T01881006  RH  027%=      5-min Rain = 0
KBY1 170022Z 19004KT 19/M01 A3009 RMK A01 T01871006  RH  027%=      5-min Rain = 0
KBY1 170023Z 19004KT 19/M01 A3009 RMK A01 T01871006  RH  027%=      5-min Rain = 0
KBY1 170024Z 18004KT 19/M01 A3009 RMK A01 T01861006  RH  027%=      5-min Rain = 0
KBY1 170025Z 17003KT 19/M01 A3009 RMK A01 T01851006  RH  027%=      5-min Rain = 0
KBY1 170026Z 17003KT 18/M01 A3009 RMK A01 T01841007  RH  028%=      5-min Rain = 0
KBY1 170027Z 17004KT 18/M01 A3009 RMK A01 T01831007  RH  028%=      5-min Rain = 0
KBY1 170028Z 18004KT 18/M01 A3009 RMK A01 T01821007  RH  028%=      5-min Rain = 0
KBY1 170029Z 18004KT 18/M01 A3009 RMK A01 T01821006  RH  028%=      5-min Rain = 0
KBY1 170030Z 18004KT 18/M01 A3009 RMK A01 T01811006  RH  028%=      5-min Rain = 0
KBY1 170031Z 18003KT 18/M01 A3009 RMK A01 T01811005  RH  028%=      5-min Rain = 0
KBY1 170032Z 18003KT 18/M01 A3009 RMK A01 T01811005  RH  028%=      5-min Rain = 0
KBY1 170033Z 18003KT 18/M01 A3009 RMK A01 T01811005  RH  028%=      5-min Rain = 0
KBY1 170034Z 18003KT 18/M01 A3009 RMK A01 T01801005  RH  029%=      5-min Rain = 0
KBY1 170035Z 18003KT 18/M00 A3009 RMK A01 T01801004  RH  029%=      5-min Rain = 0
KBY1 170036Z 18003KT 18/M00 A3009 RMK A01 T01791004  RH  029%=      5-min Rain = 0
KBY1 170037Z 17003KT 18/M00 A3009 RMK A01 T01781004  RH  029%=      5-min Rain = 0
KBY1 170038Z 17003KT 18/M00 A3009 RMK A01 T01781003  RH  029%=      5-min Rain = 0
KBY1 170039Z 18003KT 18/M00 A3009 RMK A01 T01771002  RH  030%=      5-min Rain = 0
KBY1 170040Z 18003KT 18/M00 A3009 RMK A01 T01761002  RH  030%=      5-min Rain = 0
KBY1 170041Z 17003KT 18/M00 A3009 RMK A01 T01751002  RH  030%=      5-min Rain = 0
KBY1 170042Z 17003KT 18/M00 A3009 RMK A01 T01751001  RH  030%=      5-min Rain = 0
KBY1 170043Z 17003KT 17/M00 A3009 RMK A01 T01741001  RH  031%=      5-min Rain = 0
KBY1 170044Z 17002KT 17/M00 A3009 RMK A01 T01721001  RH  031%=      5-min Rain = 0
KBY1 170045Z 17002KT 17/M00 A3009 RMK A01 T01721001  RH  031%=      5-min Rain = 0
KBY1 170046Z 16002KT 17/M00 A3009 RMK A01 T01711001  RH  031%=      5-min Rain = 0
KBY1 170047Z 16002KT 17/00 A3009 RMK A01 T017000-0  RH  031%=      5-min Rain = 0
KBY1 170048Z 15001KT 17/00 A3009 RMK A01 T017000-0  RH  032%=      5-min Rain = 0
KBY1 170049Z 15001KT 17/00 A3009 RMK A01 T01690001  RH  032%=      5-min Rain = 0
KBY1 170050Z 13001KT 17/00 A3009 RMK A01 T01680002  RH  032%=      5-min Rain = 0
KBY1 170051Z 12001KT 17/00 A3009 RMK A01 T01670003  RH  033%=      5-min Rain = 0
KBY1 170052Z 11001KT 17/00 A3009 RMK A01 T01650003  RH  033%=      5-min Rain = 0
KBY1 170053Z 11001KT 16/00 A3009 RMK A01 T01640002  RH  033%=      5-min Rain = 0
KBY1 170054Z 10001KT 16/00 A3009 RMK A01 T01630003  RH  034%=      5-min Rain = 0
KBY1 170055Z 10001KT 16/00 A3009 RMK A01 T01620004  RH  034%=      5-min Rain = 0
KBY1 170056Z 10001KT 16/00 A3009 RMK A01 T01600004  RH  035%=      5-min Rain = 0
KBY1 170057Z 10001KT 16/00 A3009 RMK A01 T01590004  RH  035%=      5-min Rain = 0
KBY1 170058Z 11001KT 16/01 A3009 RMK A01 T01580005  RH  035%=      5-min Rain = 0
KBY1 170059Z 12001KT 16/00 A3009 RMK A01 T01560004  RH  036%=      5-min Rain = 0
KBY1 170100Z 12001KT 16/01 A3009 RMK A01 T01560005  RH  036%=      5-min Rain = 0
KBY1 170101Z 12001KT 16/01 A3009 RMK A01 T01560005  RH  036%=      5-min Rain = 0
KBY1 170102Z 12001KT 16/01 A3009 RMK A01 T01560005  RH  036%=      5-min Rain = 0
KBY1 170103Z 12001KT 16/01 A3009 RMK A01 T01560005  RH  036%=      5-min Rain = 0
KBY1 170104Z 10001KT 16/01 A3009 RMK A01 T01560005  RH  036%=      5-min Rain = 0
KBY1 170105Z 11001KT 16/01 A3009 RMK A01 T01560005  RH  036%=      5-min Rain = 0
KBY1 170106Z 11001KT 16/01 A3009 RMK A01 T01560006  RH  036%=      5-min Rain = 0
KBY1 170107Z 12001KT 16/01 A3009 RMK A01 T01550006  RH  036%=      5-min Rain = 0
KBY1 170108Z 12001KT 15/01 A3009 RMK A01 T01540006  RH  036%=      5-min Rain = 0
KBY1 170109Z 09001KT 15/01 A3009 RMK A01 T01540007  RH  037%=      5-min Rain = 0
KBY1 170110Z 10001KT 15/01 A3009 RMK A01 T01530006  RH  037%=      5-min Rain = 0
KBY1 170111Z 10001KT 15/01 A3009 RMK A01 T01520006  RH  037%=      5-min Rain = 0
KBY1 170112Z 08001KT 15/01 A3009 RMK A01 T01520007  RH  037%=      5-min Rain = 0
KBY1 170113Z 08001KT 15/01 A3009 RMK A01 T01510008  RH  038%=      5-min Rain = 0
KBY1 170114Z 09001KT 15/01 A3009 RMK A01 T01490009  RH  039%=      5-min Rain = 0
KBY1 170115Z 09002KT 15/01 A3009 RMK A01 T01470009  RH  039%=      5-min Rain = 0
KBY1 170116Z 08002KT 15/01 A3009 RMK A01 T01460007  RH  039%=      5-min Rain = 0
KBY1 170117Z 08002KT 15/01 A301 RMK A01 T01460012  RH  040%=      5-min Rain = 0
KBY1 170118Z 08002KT 14/01 A301 RMK A01 T01430014  RH  041%=      5-min Rain = 0
KBY1 170119Z 08002KT 14/01 A301 RMK A01 T01410010  RH  041%=      5-min Rain = 0
KBY1 170120Z 08002KT 14/01 A301 RMK A01 T01400009  RH  041%=      5-min Rain = 0
KBY1 170121Z 08002KT 14/01 A301 RMK A01 T01410008  RH  040%=      5-min Rain = 0
KBY1 170122Z 09002KT 14/01 A301 RMK A01 T01420008  RH  040%=      5-min Rain = 0
KBY1 170123Z 09002KT 14/01 A301 RMK A01 T01430008  RH  040%=      5-min Rain = 0
KBY1 170124Z 08002KT 14/01 A301 RMK A01 T01440008  RH  039%=      5-min Rain = 0
KBY1 170125Z 09002KT 15/01 A301 RMK A01 T01450008  RH  039%=      5-min Rain = 0
KBY1 170126Z 08002KT 15/01 A301 RMK A01 T01450008  RH  039%=      5-min Rain = 0
KBY1 170127Z 08002KT 15/01 A301 RMK A01 T01450008  RH  039%=      5-min Rain = 0
KBY1 170128Z 07002KT 15/01 A301 RMK A01 T01450008  RH  039%=      5-min Rain = 0
KBY1 170129Z 08001KT 15/01 A301 RMK A01 T01450006  RH  039%=      5-min Rain = 0
KBY1 170130Z 08002KT 15/01 A301 RMK A01 T01460006  RH  038%=      5-min Rain = 0
KBY1 170131Z 09001KT 15/01 A301 RMK A01 T01470006  RH  038%=      5-min Rain = 0
KBY1 170132Z 10001KT 15/01 A301 RMK A01 T01470005  RH  038%=      5-min Rain = 0
KBY1 170133Z 10001KT 15/01 A301 RMK A01 T01480006  RH  038%=      5-min Rain = 0
KBY1 170134Z 11001KT 15/01 A301 RMK A01 T01480007  RH  038%=      5-min Rain = 0
KBY1 170135Z 09001KT 15/01 A301 RMK A01 T01470008  RH  039%=      5-min Rain = 0
KBY1 170136Z 09001KT 15/01 A301 RMK A01 T01460008  RH  039%=      5-min Rain = 0
KBY1 170137Z 08001KT 15/01 A301 RMK A01 T01450007  RH  039%=      5-min Rain = 0
KBY1 170138Z 07001KT 15/01 A301 RMK A01 T01450007  RH  039%=      5-min Rain = 0
KBY1 170139Z 06001KT 14/01 A301 RMK A01 T01440008  RH  039%=      5-min Rain = 0
KBY1 170140Z 07001KT 14/01 A301 RMK A01 T01440008  RH  040%=      5-min Rain = 0
KBY1 170141Z 06001KT 14/01 A301 RMK A01 T01430008  RH  040%=      5-min Rain = 0
KBY1 170142Z 07001KT 14/01 A301 RMK A01 T01420008  RH  040%=      5-min Rain = 0
KBY1 170143Z 05001KT 14/01 A301 RMK A01 T01420008  RH  040%=      5-min Rain = 0
KBY1 170144Z 06001KT 14/01 A301 RMK A01 T01420006  RH  040%=      5-min Rain = 0
KBY1 170145Z 06001KT 14/01 A301 RMK A01 T01430007  RH  040%=      5-min Rain = 0
KBY1 170146Z 06002KT 14/01 A301 RMK A01 T01430008  RH  040%=      5-min Rain = 0
KBY1 170147Z 06002KT 14/01 A301 RMK A01 T01420008  RH  040%=      5-min Rain = 0
KBY1 170148Z 06001KT 14/01 A301 RMK A01 T01410008  RH  040%=      5-min Rain = 0
KBY1 170149Z 06001KT 14/01 A301 RMK A01 T01410008  RH  040%=      5-min Rain = 0
KBY1 170150Z 05001KT 14/01 A301 RMK A01 T01400008  RH  040%=      5-min Rain = 0
KBY1 170151Z 06001KT 14/01 A301 RMK A01 T01400008  RH  041%=      5-min Rain = 0
KBY1 170152Z 06001KT 14/01 A301 RMK A01 T01400009  RH  041%=      5-min Rain = 0
KBY1 170153Z 06001KT 14/01 A301 RMK A01 T01390009  RH  041%=      5-min Rain = 0
KBY1 170154Z 07001KT 14/01 A301 RMK A01 T01390009  RH  041%=      5-min Rain = 0
KBY1 170155Z 07001KT 14/01 A301 RMK A01 T01380009  RH  041%=      5-min Rain = 0
KBY1 170156Z 08001KT 14/01 A301 RMK A01 T01370008  RH  041%=      5-min Rain = 0
KBY1 170157Z 09001KT 14/01 A301 RMK A01 T01370007  RH  041%=      5-min Rain = 0
KBY1 170158Z 10001KT 14/01 A301 RMK A01 T01370007  RH  041%=      5-min Rain = 0
KBY1 170159Z 10001KT 14/01 A301 RMK A01 T01370007  RH  041%=      5-min Rain = 0
KBY1 170200Z 11002KT 14/01 A301 RMK A01 T01370007  RH  041%=      5-min Rain = 0
KBY1 170201Z 12002KT 14/01 A301 RMK A01 T01370008  RH  041%=      5-min Rain = 0
KBY1 170202Z 12001KT 14/01 A301 RMK A01 T01370007  RH  041%=      5-min Rain = 0
KBY1 170203Z 13002KT 14/01 A301 RMK A01 T01370008  RH  041%=      5-min Rain = 0
KBY1 170204Z 12001KT 14/01 A3009 RMK A01 T01360009  RH  042%=      5-min Rain = 0
KBY1 170205Z 13002KT 14/01 A3009 RMK A01 T01350009  RH  042%=      5-min Rain = 0
KBY1 170206Z 13001KT 13/01 A3009 RMK A01 T01330008  RH  042%=      5-min Rain = 0
KBY1 170207Z 13001KT 13/01 A3009 RMK A01 T01330009  RH  043%=      5-min Rain = 0
KBY1 170208Z 12001KT 13/01 A3009 RMK A01 T01320010  RH  044%=      5-min Rain = 0
KBY1 170209Z 13001KT 13/02 A3009 RMK A01 T01290017  RH  047%=      5-min Rain = 0
KBY1 170210Z 13001KT 12/02 A3009 RMK A01 T01240018  RH  048%=      5-min Rain = 0
KBY1 170211Z 12001KT 12/02 A3009 RMK A01 T01200019  RH  050%=      5-min Rain = 0
KBY1 170212Z 11000KT 12/02 A3009 RMK A01 T01160018  RH  051%=      5-min Rain = 0
KBY1 170213Z 10001KT 11/02 A3009 RMK A01 T01120017  RH  052%=      5-min Rain = 0
KBY1 170214Z 11001KT 11/02 A3009 RMK A01 T01080018  RH  053%=      5-min Rain = 0
KBY1 170215Z 10000KT 11/01 A3009 RMK A01 T01060014  RH  053%=      5-min Rain = 0
KBY1 170216Z 10001KT 11/02 A3009 RMK A01 T01080015  RH  053%=      5-min Rain = 0
KBY1 170217Z 09001KT 11/02 A3009 RMK A01 T01080015  RH  053%=      5-min Rain = 0
KBY1 170218Z 08001KT 11/01 A3009 RMK A01 T01090013  RH  051%=      5-min Rain = 0
KBY1 170219Z 08001KT 11/01 A3009 RMK A01 T01120013  RH  050%=      5-min Rain = 0
KBY1 170220Z 08001KT 11/02 A3009 RMK A01 T01140015  RH  050%=      5-min Rain = 0
KBY1 170221Z 08001KT 11/01 A3009 RMK A01 T01140014  RH  050%=      5-min Rain = 0
KBY1 170222Z 10001KT 12/01 A3009 RMK A01 T01150012  RH  049%=      5-min Rain = 0
KBY1 170223Z 10001KT 12/01 A3009 RMK A01 T01170011  RH  048%=      5-min Rain = 0
KBY1 170224Z 10001KT 12/01 A3009 RMK A01 T01180012  RH  048%=      5-min Rain = 0
KBY1 170225Z 12001KT 12/01 A3009 RMK A01 T01180013  RH  049%=      5-min Rain = 0
KBY1 170226Z 12001KT 12/01 A3009 RMK A01 T01160014  RH  049%=      5-min Rain = 0
KBY1 170227Z 12001KT 11/01 A3009 RMK A01 T01140012  RH  049%=      5-min Rain = 0
KBY1 170228Z 13001KT 11/01 A3009 RMK A01 T01130010  RH  049%=      5-min Rain = 0
KBY1 170229Z 13001KT 11/01 A3009 RMK A01 T01130011  RH  049%=      5-min Rain = 0
KBY1 170230Z 11001KT 11/02 A3009 RMK A01 T01120016  RH  052%=      5-min Rain = 0
KBY1 170231Z 12000KT 11/02 A3009 RMK A01 T01090015  RH  052%=      5-min Rain = 0
KBY1 170232Z 12000KT 11/02 A3009 RMK A01 T01080017  RH  054%=      5-min Rain = 0
KBY1 170233Z 12000KT 11/02 A3009 RMK A01 T01060019  RH  055%=      5-min Rain = 0
KBY1 170234Z 00000KT 10/02 A3009 RMK A01 T01040020  RH  056%=      5-min Rain = 0
KBY1 170235Z 00000KT 10/02 A3009 RMK A01 T01010019  RH  057%=      5-min Rain = 0
KBY1 170236Z 00000KT 10/02 A3009 RMK A01 T00990017  RH  057%=      5-min Rain = 0
KBY1 170237Z 00000KT 10/02 A3009 RMK A01 T00980015  RH  056%=      5-min Rain = 0
KBY1 170238Z 00000KT 10/02 A3009 RMK A01 T00980016  RH  057%=      5-min Rain = 0
KBY1 170239Z 00000KT 10/02 A3009 RMK A01 T00980016  RH  056%=      5-min Rain = 0
KBY1 170240Z 00000KT 10/02 A3009 RMK A01 T00980018  RH  057%=      5-min Rain = 0
KBY1 170241Z 00000KT 10/01 A3009 RMK A01 T00980014  RH  056%=      5-min Rain = 0
KBY1 170242Z 00000KT 10/01 A3009 RMK A01 T00980014  RH  056%=      5-min Rain = 0
KBY1 170243Z 03001KT 10/02 A3009 RMK A01 T00980018  RH  057%=      5-min Rain = 0
KBY1 170244Z 02001KT 10/02 A3009 RMK A01 T00970017  RH  057%=      5-min Rain = 0
KBY1 170245Z 01001KT 10/02 A3009 RMK A01 T00970016  RH  057%=      5-min Rain = 0
KBY1 170246Z 02002KT 10/02 A3009 RMK A01 T00970016  RH  057%=      5-min Rain = 0
KBY1 170247Z 02002KT 10/02 A3009 RMK A01 T00980016  RH  057%=      5-min Rain = 0
KBY1 170248Z 02002KT 10/02 A3009 RMK A01 T00980016  RH  057%=      5-min Rain = 0
KBY1 170249Z 02003KT 10/02 A3009 RMK A01 T01000015  RH  055%=      5-min Rain = 0
KBY1 170250Z 01003KT 10/02 A3009 RMK A01 T01020015  RH  055%=      5-min Rain = 0
KBY1 170251Z 01004KT 10/01 A3009 RMK A01 T01030014  RH  054%=      5-min Rain = 0
KBY1 170252Z 01004KT 10/01 A3009 RMK A01 T01040013  RH  053%=      5-min Rain = 0
KBY1 170253Z 01003KT 11/01 A3009 RMK A01 T01070013  RH  052%=      5-min Rain = 0
KBY1 170254Z 01003KT 11/01 A3009 RMK A01 T01080014  RH  052%=      5-min Rain = 0
KBY1 170255Z 01003KT 11/01 A3009 RMK A01 T01080012  RH  052%=      5-min Rain = 0
KBY1 170256Z 02003KT 11/01 A3009 RMK A01 T01100011  RH  051%=      5-min Rain = 0
KBY1 170257Z 02002KT 11/01 A3009 RMK A01 T01110012  RH  051%=      5-min Rain = 0
KBY1 170258Z 02002KT 11/01 A3009 RMK A01 T01110012  RH  050%=      5-min Rain = 0
KBY1 170259Z 02002KT 11/01 A3009 RMK A01 T01130008  RH  048%=      5-min Rain = 0
KBY1 170300Z 02001KT 12/02 A3009 RMK A01 T01150015  RH  050%=      5-min Rain = 0
KBY1 170301Z 05001KT 11/02 A3009 RMK A01 T01090018  RH  053%=      5-min Rain = 0
KBY1 170302Z 14001KT 10/02 A3009 RMK A01 T01000021  RH  058%=      5-min Rain = 0
KBY1 170303Z 06002KT 09/02 A3009 RMK A01 T00910018  RH  060%=      5-min Rain = 0
KBY1 170304Z 07001KT 09/02 A3009 RMK A01 T00860018  RH  062%=      5-min Rain = 0
KBY1 170305Z 02000KT 08/02 A3009 RMK A01 T00840019  RH  064%=      5-min Rain = 0
KBY1 170306Z 22000KT 08/02 A3009 RMK A01 T00830017  RH  063%=      5-min Rain = 0
KBY1 170307Z 30000KT 09/02 A3009 RMK A01 T00860016  RH  061%=      5-min Rain = 0
KBY1 170308Z 28000KT 09/01 A3009 RMK A01 T00890012  RH  058%=      5-min Rain = 0
KBY1 170309Z 23000KT 09/01 A3009 RMK A01 T00910014  RH  059%=      5-min Rain = 0
KBY1 170310Z 28000KT 09/01 A3009 RMK A01 T00890013  RH  059%=      5-min Rain = 0
KBY1 170311Z 29001KT 09/01 A3009 RMK A01 T00900012  RH  058%=      5-min Rain = 0
KBY1 170312Z 29001KT 09/01 A3009 RMK A01 T00940012  RH  057%=      5-min Rain = 0
KBY1 170313Z 29002KT 10/01 A3009 RMK A01 T00970010  RH  055%=      5-min Rain = 0
KBY1 170314Z 28001KT 10/01 A3009 RMK A01 T01000012  RH  054%=      5-min Rain = 0
KBY1 170315Z 29001KT 10/01 A3009 RMK A01 T01010009  RH  053%=      5-min Rain = 0
KBY1 170316Z 32002KT 10/01 A3009 RMK A01 T01030012  RH  053%=      5-min Rain = 0
KBY1 170317Z 31002KT 10/01 A3009 RMK A01 T01030014  RH  054%=      5-min Rain = 0
KBY1 170318Z 32002KT 10/02 A3009 RMK A01 T01010017  RH  056%=      5-min Rain = 0
KBY1 170319Z 31002KT 10/02 A3009 RMK A01 T00980017  RH  057%=      5-min Rain = 0
KBY1 170320Z 31001KT 10/01 A3009 RMK A01 T00960013  RH  056%=      5-min Rain = 0
KBY1 170321Z 31000KT 10/02 A3009 RMK A01 T00950017  RH  058%=      5-min Rain = 0
KBY1 170322Z 00000KT 09/02 A3009 RMK A01 T00930017  RH  059%=      5-min Rain = 0
KBY1 170323Z 00000KT 09/02 A3009 RMK A01 T00910016  RH  059%=      5-min Rain = 0
KBY1 170324Z 00000KT 09/02 A3009 RMK A01 T00900018  RH  061%=      5-min Rain = 0
KBY1 170325Z 00000KT 09/02 A3009 RMK A01 T00880016  RH  061%=      5-min Rain = 0
KBY1 170326Z 26001KT 09/01 A3009 RMK A01 T00860013  RH  060%=      5-min Rain = 0
KBY1 170327Z 24000KT 08/01 A3009 RMK A01 T00840011  RH  060%=      5-min Rain = 0
KBY1 170328Z 24001KT 08/01 A301 RMK A01 T00830013  RH  061%=      5-min Rain = 0
KBY1 170329Z 23001KT 08/01 A301 RMK A01 T00830014  RH  062%=      5-min Rain = 0
KBY1 170330Z 23001KT 08/02 A301 RMK A01 T00830017  RH  063%=      5-min Rain = 0
KBY1 170331Z 23001KT 08/02 A301 RMK A01 T00820017  RH  063%=      5-min Rain = 0
KBY1 170332Z 21001KT 08/02 A301 RMK A01 T00820019  RH  064%=      5-min Rain = 0
KBY1 170333Z 22001KT 08/02 A301 RMK A01 T00810020  RH  065%=      5-min Rain = 0
KBY1 170334Z 24002KT 08/02 A301 RMK A01 T00800020  RH  066%=      5-min Rain = 0
KBY1 170335Z 24001KT 08/02 A301 RMK A01 T00780020  RH  067%=      5-min Rain = 0
KBY1 170336Z 24000KT 08/02 A301 RMK A01 T00770022  RH  068%=      5-min Rain = 0
KBY1 170337Z 24001KT 08/02 A301 RMK A01 T00760021  RH  068%=      5-min Rain = 0
KBY1 170338Z 28002KT 08/02 A301 RMK A01 T00760019  RH  067%=      5-min Rain = 0
KBY1 170339Z 30001KT 08/02 A301 RMK A01 T00770019  RH  067%=      5-min Rain = 0
KBY1 170340Z 30001KT 08/02 A301 RMK A01 T00770020  RH  067%=      5-min Rain = 0
KBY1 170341Z 30000KT 08/02 A301 RMK A01 T00770019  RH  067%=      5-min Rain = 0
KBY1 170342Z 28002KT 08/02 A301 RMK A01 T00780018  RH  066%=      5-min Rain = 0
KBY1 170343Z 28002KT 08/02 A301 RMK A01 T00770017  RH  065%=      5-min Rain = 0
KBY1 170344Z 29001KT 08/02 A301 RMK A01 T00770016  RH  065%=      5-min Rain = 0
KBY1 170345Z 31001KT 08/02 A301 RMK A01 T00780015  RH  065%=      5-min Rain = 0
KBY1 170346Z 36000KT 08/01 A301 RMK A01 T00800014  RH  063%=      5-min Rain = 0
KBY1 170347Z 33001KT 08/02 A301 RMK A01 T00840015  RH  062%=      5-min Rain = 0
KBY1 170348Z 33003KT 09/02 A301 RMK A01 T00860015  RH  061%=      5-min Rain = 0
KBY1 170349Z 34002KT 09/02 A301 RMK A01 T00880015  RH  060%=      5-min Rain = 0
KBY1 170350Z 02001KT 09/02 A301 RMK A01 T00880017  RH  061%=      5-min Rain = 0
KBY1 170351Z 03001KT 09/02 A301 RMK A01 T00870018  RH  062%=      5-min Rain = 0
KBY1 170352Z 02002KT 09/02 A301 RMK A01 T00860019  RH  063%=      5-min Rain = 0
KBY1 170353Z 01002KT 08/02 A301 RMK A01 T00840019  RH  064%=      5-min Rain = 0
KBY1 170354Z 00003KT 08/02 A301 RMK A01 T00830018  RH  064%=      5-min Rain = 0
KBY1 170355Z 36002KT 08/02 A301 RMK A01 T00840015  RH  062%=      5-min Rain = 0
KBY1 170356Z 00001KT 09/02 A301 RMK A01 T00850018  RH  062%=      5-min Rain = 0
KBY1 170357Z 02001KT 08/02 A301 RMK A01 T00820018  RH  064%=      5-min Rain = 0
KBY1 170358Z 00000KT 07/01 A301 RMK A01 T00740014  RH  066%=      5-min Rain = 0
KBY1 170359Z 07000KT 07/01 A301 RMK A01 T00700014  RH  067%=      5-min Rain = 0
KBY1 170400Z 07000KT 07/01 A301 RMK A01 T00660014  RH  069%=      5-min Rain = 0
KBY1 170401Z 07000KT 06/01 A301 RMK A01 T00630013  RH  070%=      5-min Rain = 0
KBY1 170402Z 00000KT 06/01 A301 RMK A01 T00620013  RH  071%=      5-min Rain = 0
KBY1 170403Z 00000KT 06/01 A301 RMK A01 T00610014  RH  072%=      5-min Rain = 0
KBY1 170404Z 00000KT 06/02 A301 RMK A01 T00610015  RH  072%=      5-min Rain = 0
KBY1 170405Z 19001KT 06/02 A301 RMK A01 T00610015  RH  072%=      5-min Rain = 0
KBY1 170406Z 17000KT 06/01 A301 RMK A01 T00620014  RH  071%=      5-min Rain = 0
KBY1 170407Z 22001KT 06/01 A301 RMK A01 T00630014  RH  071%=      5-min Rain = 0
KBY1 170408Z 19001KT 06/02 A301 RMK A01 T00620015  RH  072%=      5-min Rain = 0
KBY1 170409Z 18001KT 06/02 A301 RMK A01 T00620016  RH  072%=      5-min Rain = 0
KBY1 170410Z 19001KT 06/02 A301 RMK A01 T00620017  RH  073%=      5-min Rain = 0
KBY1 170411Z 00000KT 06/02 A301 RMK A01 T00610018  RH  074%=      5-min Rain = 0
KBY1 170412Z 18001KT 06/02 A301 RMK A01 T00620019  RH  074%=      5-min Rain = 0
KBY1 170413Z 18001KT 06/02 A301 RMK A01 T00620020  RH  074%=      5-min Rain = 0
KBY1 170414Z 19001KT 06/02 A301 RMK A01 T00630020  RH  074%=      5-min Rain = 0
KBY1 170415Z 19001KT 06/02 A301 RMK A01 T00640020  RH  073%=      5-min Rain = 0
KBY1 170416Z 20001KT 07/02 A301 RMK A01 T00660019  RH  072%=      5-min Rain = 0
KBY1 170417Z 19001KT 07/02 A301 RMK A01 T00670018  RH  071%=      5-min Rain = 0
KBY1 170418Z 19001KT 07/02 A301 RMK A01 T00690017  RH  070%=      5-min Rain = 0
KBY1 170419Z 19000KT 07/02 A301 RMK A01 T00700016  RH  069%=      5-min Rain = 0
KBY1 170420Z 00000KT 07/02 A301 RMK A01 T00710016  RH  068%=      5-min Rain = 0
KBY1 170421Z 17000KT 07/02 A301 RMK A01 T00720015  RH  067%=      5-min Rain = 0
KBY1 170422Z 17000KT 07/02 A301 RMK A01 T00730015  RH  067%=      5-min Rain = 0
KBY1 170423Z 00000KT 07/02 A301 RMK A01 T00730015  RH  066%=      5-min Rain = 0
KBY1 170424Z 00000KT 07/01 A301 RMK A01 T00740014  RH  066%=      5-min Rain = 0
KBY1 170425Z 00000KT 07/02 A301 RMK A01 T00740015  RH  066%=      5-min Rain = 0
KBY1 170426Z 00000KT 07/02 A301 RMK A01 T00740015  RH  066%=      5-min Rain = 0
KBY1 170427Z 00000KT 08/02 A301 RMK A01 T00750015  RH  066%=      5-min Rain = 0
KBY1 170428Z 00000KT 08/02 A301 RMK A01 T00760015  RH  065%=      5-min Rain = 0
KBY1 170429Z 00000KT 08/02 A301 RMK A01 T00760016  RH  065%=      5-min Rain = 0
KBY1 170430Z 00000KT 08/02 A301 RMK A01 T00760016  RH  065%=      5-min Rain = 0
KBY1 170431Z 00000KT 08/02 A301 RMK A01 T00760015  RH  065%=      5-min Rain = 0
KBY1 170432Z 00000KT 08/02 A301 RMK A01 T00770015  RH  065%=      5-min Rain = 0
KBY1 170433Z 00000KT 08/02 A301 RMK A01 T00770016  RH  065%=      5-min Rain = 0
KBY1 170434Z 00000KT 08/02 A301 RMK A01 T00770016  RH  065%=      5-min Rain = 0
KBY1 170435Z 00000KT 08/02 A301 RMK A01 T00760016  RH  066%=      5-min Rain = 0
KBY1 170436Z 08000KT 08/02 A301 RMK A01 T00760015  RH  066%=      5-min Rain = 0
KBY1 170437Z 08001KT 08/02 A301 RMK A01 T00750018  RH  067%=      5-min Rain = 0
KBY1 170438Z 08001KT 07/02 A301 RMK A01 T00720020  RH  070%=      5-min Rain = 0
KBY1 170439Z 08001KT 07/02 A301 RMK A01 T00670018  RH  071%=      5-min Rain = 0
KBY1 170440Z 08001KT 07/02 A301 RMK A01 T00650017  RH  072%=      5-min Rain = 0
KBY1 170441Z 08001KT 06/02 A301 RMK A01 T00640017  RH  072%=      5-min Rain = 0
KBY1 170442Z 08001KT 06/02 A301 RMK A01 T00640016  RH  071%=      5-min Rain = 0
KBY1 170443Z 07001KT 06/02 A3009 RMK A01 T00640015  RH  071%=      5-min Rain = 0
KBY1 170444Z 07001KT 07/02 A3009 RMK A01 T00650016  RH  071%=      5-min Rain = 0
KBY1 170445Z 07001KT 07/02 A3009 RMK A01 T00650015  RH  070%=      5-min Rain = 0
KBY1 170446Z 08001KT 07/01 A3009 RMK A01 T00650014  RH  070%=      5-min Rain = 0
KBY1 170447Z 08001KT 07/01 A3009 RMK A01 T00650014  RH  070%=      5-min Rain = 0
KBY1 170448Z 08001KT 07/01 A3009 RMK A01 T00660014  RH  069%=      5-min Rain = 0
KBY1 170449Z 09001KT 07/01 A3009 RMK A01 T00660014  RH  070%=      5-min Rain = 0
KBY1 170450Z 09001KT 07/01 A3009 RMK A01 T00660014  RH  069%=      5-min Rain = 0
KBY1 170451Z 09000KT 07/02 A3009 RMK A01 T00670015  RH  069%=      5-min Rain = 0
KBY1 170452Z 09001KT 07/02 A3009 RMK A01 T00670015  RH  069%=      5-min Rain = 0
KBY1 170453Z 09001KT 07/02 A3009 RMK A01 T00670015  RH  069%=      5-min Rain = 0
KBY1 170454Z 00000KT 07/02 A3009 RMK A01 T00670015  RH  069%=      5-min Rain = 0
KBY1 170455Z 00000KT 07/01 A3009 RMK A01 T00680014  RH  069%=      5-min Rain = 0
KBY1 170456Z 00000KT 07/01 A3009 RMK A01 T00690014  RH  068%=      5-min Rain = 0
KBY1 170457Z 07000KT 07/01 A3009 RMK A01 T00690014  RH  068%=      5-min Rain = 0
KBY1 170458Z 07000KT 07/01 A3009 RMK A01 T00690014  RH  068%=      5-min Rain = 0
KBY1 170459Z 07000KT 07/02 A3009 RMK A01 T00700015  RH  068%=      5-min Rain = 0

Page generated in 0.0718 seconds.